<?xml version="1.0" encoding="UTF-8" standalone="no" ?>
<gpx xmlns="http://www.topografix.com/GPX/1/1" xmlns:xsi="http://www.w3.org/2001/XMLSchema-instance" xsi:schemaLocation="http://www.topografix.com/GPX/1/1 http://www.topografix.com/GPX/1/1/gpx.xsd" version="1.1" creator="VisuGPX - https://www.visugpx.com">
  <metadata>
    <name>Foret Domaniale de Port Royal - Ferme du Manet</name>
    <desc><![CDATA[Boucles de 8 km au départ de la Ferme du Manet et de l'Étang des Noës]]></desc>
  </metadata>
  <trk>
    <name><![CDATA[Trace suivie]]></name>
    <extensions>
      <line xmlns="http://www.topografix.com/GPX/gpx_style/0/2">
        <color>ff0000</color>
        <width>4</width>
      </line>
    </extensions>
    <trkseg>
      <trkpt lat="48.76333" lon="2.02194">
        <ele>170.7</ele>
        <time>2021-05-19T13:36:40.000+02:00</time>
      </trkpt>
      <trkpt lat="48.76326" lon="2.02182">
        <ele>176.3</ele>
        <time>2021-05-19T13:36:55.000+02:00</time>
      </trkpt>
      <trkpt lat="48.76326" lon="2.02175">
        <ele>187.9</ele>
        <time>2021-05-19T13:37:10.000+02:00</time>
      </trkpt>
      <trkpt lat="48.76333" lon="2.02187">
        <ele>175.3</ele>
        <time>2021-05-19T13:37:20.000+02:00</time>
      </trkpt>
      <trkpt lat="48.76325" lon="2.0219">
        <ele>168.4</ele>
        <time>2021-05-19T13:37:40.000+02:00</time>
      </trkpt>
      <trkpt lat="48.76315" lon="2.02189">
        <ele>168.6</ele>
        <time>2021-05-19T13:37:55.000+02:00</time>
      </trkpt>
      <trkpt lat="48.76307" lon="2.02186">
        <ele>168</ele>
        <time>2021-05-19T13:38:10.000+02:00</time>
      </trkpt>
      <trkpt lat="48.76291" lon="2.02191">
        <ele>173.6</ele>
        <time>2021-05-19T13:38:25.000+02:00</time>
      </trkpt>
      <trkpt lat="48.7628" lon="2.02182">
        <ele>174.4</ele>
        <time>2021-05-19T13:38:40.000+02:00</time>
      </trkpt>
      <trkpt lat="48.76268" lon="2.02183">
        <ele>171.9</ele>
        <time>2021-05-19T13:38:55.000+02:00</time>
      </trkpt>
      <trkpt lat="48.76256" lon="2.02176">
        <ele>172</ele>
        <time>2021-05-19T13:39:05.000+02:00</time>
      </trkpt>
      <trkpt lat="48.76246" lon="2.02167">
        <ele>186.2</ele>
        <time>2021-05-19T13:39:15.000+02:00</time>
      </trkpt>
      <trkpt lat="48.76239" lon="2.02153">
        <ele>192.4</ele>
        <time>2021-05-19T13:39:35.000+02:00</time>
      </trkpt>
      <trkpt lat="48.76228" lon="2.02145">
        <ele>192.9</ele>
        <time>2021-05-19T13:39:45.000+02:00</time>
      </trkpt>
      <trkpt lat="48.7622" lon="2.02138">
        <ele>193.4</ele>
        <time>2021-05-19T13:39:55.000+02:00</time>
      </trkpt>
      <trkpt lat="48.76212" lon="2.02131">
        <ele>194.9</ele>
        <time>2021-05-19T13:40:05.000+02:00</time>
      </trkpt>
      <trkpt lat="48.76206" lon="2.02124">
        <ele>195</ele>
        <time>2021-05-19T13:40:15.000+02:00</time>
      </trkpt>
      <trkpt lat="48.76194" lon="2.0212">
        <ele>195.4</ele>
        <time>2021-05-19T13:40:20.000+02:00</time>
      </trkpt>
      <trkpt lat="48.76184" lon="2.02113">
        <ele>194.9</ele>
        <time>2021-05-19T13:40:25.000+02:00</time>
      </trkpt>
      <trkpt lat="48.76175" lon="2.02101">
        <ele>195.8</ele>
        <time>2021-05-19T13:40:40.000+02:00</time>
      </trkpt>
      <trkpt lat="48.76171" lon="2.02088">
        <ele>194.2</ele>
        <time>2021-05-19T13:40:50.000+02:00</time>
      </trkpt>
      <trkpt lat="48.76165" lon="2.02077">
        <ele>194.1</ele>
        <time>2021-05-19T13:41:00.000+02:00</time>
      </trkpt>
      <trkpt lat="48.76158" lon="2.02065">
        <ele>193.5</ele>
        <time>2021-05-19T13:41:15.000+02:00</time>
      </trkpt>
      <trkpt lat="48.76151" lon="2.02056">
        <ele>188</ele>
        <time>2021-05-19T13:41:35.000+02:00</time>
      </trkpt>
      <trkpt lat="48.76141" lon="2.02052">
        <ele>187.8</ele>
        <time>2021-05-19T13:41:45.000+02:00</time>
      </trkpt>
      <trkpt lat="48.76133" lon="2.02049">
        <ele>185.8</ele>
        <time>2021-05-19T13:41:55.000+02:00</time>
      </trkpt>
      <trkpt lat="48.76119" lon="2.02046">
        <ele>183.3</ele>
        <time>2021-05-19T13:42:10.000+02:00</time>
      </trkpt>
      <trkpt lat="48.76104" lon="2.02043">
        <ele>181.3</ele>
        <time>2021-05-19T13:42:25.000+02:00</time>
      </trkpt>
      <trkpt lat="48.76095" lon="2.02034">
        <ele>176.7</ele>
        <time>2021-05-19T13:42:35.000+02:00</time>
      </trkpt>
      <trkpt lat="48.76085" lon="2.02028">
        <ele>177.5</ele>
        <time>2021-05-19T13:42:40.000+02:00</time>
      </trkpt>
      <trkpt lat="48.76079" lon="2.02013">
        <ele>185</ele>
        <time>2021-05-19T13:42:55.000+02:00</time>
      </trkpt>
      <trkpt lat="48.76069" lon="2.02001">
        <ele>197.4</ele>
        <time>2021-05-19T13:43:05.000+02:00</time>
      </trkpt>
      <trkpt lat="48.76064" lon="2.01985">
        <ele>192.4</ele>
        <time>2021-05-19T13:43:20.000+02:00</time>
      </trkpt>
      <trkpt lat="48.76066" lon="2.01967">
        <ele>192.6</ele>
        <time>2021-05-19T13:43:35.000+02:00</time>
      </trkpt>
      <trkpt lat="48.76063" lon="2.01958">
        <ele>193.8</ele>
        <time>2021-05-19T13:43:55.000+02:00</time>
      </trkpt>
      <trkpt lat="48.76071" lon="2.01947">
        <ele>191.9</ele>
        <time>2021-05-19T13:44:10.000+02:00</time>
      </trkpt>
      <trkpt lat="48.76079" lon="2.01931">
        <ele>190.8</ele>
        <time>2021-05-19T13:44:25.000+02:00</time>
      </trkpt>
      <trkpt lat="48.76086" lon="2.01916">
        <ele>189.7</ele>
        <time>2021-05-19T13:44:40.000+02:00</time>
      </trkpt>
      <trkpt lat="48.76094" lon="2.01905">
        <ele>190.2</ele>
        <time>2021-05-19T13:44:51.000+02:00</time>
      </trkpt>
      <trkpt lat="48.76102" lon="2.01887">
        <ele>192.7</ele>
        <time>2021-05-19T13:45:00.000+02:00</time>
      </trkpt>
      <trkpt lat="48.76108" lon="2.01868">
        <ele>197.3</ele>
        <time>2021-05-19T13:45:10.000+02:00</time>
      </trkpt>
      <trkpt lat="48.76114" lon="2.01856">
        <ele>201.9</ele>
        <time>2021-05-19T13:45:15.000+02:00</time>
      </trkpt>
      <trkpt lat="48.76123" lon="2.01843">
        <ele>196.4</ele>
        <time>2021-05-19T13:45:25.000+02:00</time>
      </trkpt>
      <trkpt lat="48.76123" lon="2.01828">
        <ele>173.4</ele>
        <time>2021-05-19T13:45:37.000+02:00</time>
      </trkpt>
      <trkpt lat="48.76128" lon="2.01812">
        <ele>195.9</ele>
        <time>2021-05-19T13:45:45.000+02:00</time>
      </trkpt>
      <trkpt lat="48.76129" lon="2.01797">
        <ele>197.4</ele>
        <time>2021-05-19T13:45:50.000+02:00</time>
      </trkpt>
      <trkpt lat="48.76128" lon="2.01778">
        <ele>183.8</ele>
        <time>2021-05-19T13:46:03.000+02:00</time>
      </trkpt>
      <trkpt lat="48.76124" lon="2.01763">
        <ele>170.3</ele>
        <time>2021-05-19T13:46:15.000+02:00</time>
      </trkpt>
      <trkpt lat="48.76114" lon="2.01755">
        <ele>162.4</ele>
        <time>2021-05-19T13:46:25.000+02:00</time>
      </trkpt>
      <trkpt lat="48.76107" lon="2.01742">
        <ele>168.6</ele>
        <time>2021-05-19T13:46:40.000+02:00</time>
      </trkpt>
      <trkpt lat="48.76098" lon="2.01733">
        <ele>173.2</ele>
        <time>2021-05-19T13:46:50.000+02:00</time>
      </trkpt>
      <trkpt lat="48.76102" lon="2.0172">
        <ele>175.8</ele>
        <time>2021-05-19T13:47:00.000+02:00</time>
      </trkpt>
      <trkpt lat="48.76104" lon="2.01704">
        <ele>178.9</ele>
        <time>2021-05-19T13:47:15.000+02:00</time>
      </trkpt>
      <trkpt lat="48.76106" lon="2.0169">
        <ele>181</ele>
        <time>2021-05-19T13:47:25.000+02:00</time>
      </trkpt>
      <trkpt lat="48.76103" lon="2.01676">
        <ele>183.6</ele>
        <time>2021-05-19T13:47:35.000+02:00</time>
      </trkpt>
      <trkpt lat="48.76105" lon="2.01653">
        <ele>187.3</ele>
        <time>2021-05-19T13:47:45.000+02:00</time>
      </trkpt>
      <trkpt lat="48.76107" lon="2.01634">
        <ele>186.6</ele>
        <time>2021-05-19T13:48:00.000+02:00</time>
      </trkpt>
      <trkpt lat="48.76105" lon="2.01615">
        <ele>188.6</ele>
        <time>2021-05-19T13:48:20.000+02:00</time>
      </trkpt>
      <trkpt lat="48.76106" lon="2.01601">
        <ele>189.6</ele>
        <time>2021-05-19T13:48:30.000+02:00</time>
      </trkpt>
      <trkpt lat="48.76108" lon="2.01587">
        <ele>185.4</ele>
        <time>2021-05-19T13:48:45.000+02:00</time>
      </trkpt>
      <trkpt lat="48.76108" lon="2.01573">
        <ele>181.3</ele>
        <time>2021-05-19T13:49:00.000+02:00</time>
      </trkpt>
      <trkpt lat="48.76114" lon="2.01556">
        <ele>177.6</ele>
        <time>2021-05-19T13:49:10.000+02:00</time>
      </trkpt>
      <trkpt lat="48.7612" lon="2.0154">
        <ele>177.7</ele>
        <time>2021-05-19T13:49:20.000+02:00</time>
      </trkpt>
      <trkpt lat="48.7612" lon="2.01518">
        <ele>178</ele>
        <time>2021-05-19T13:49:30.000+02:00</time>
      </trkpt>
      <trkpt lat="48.76128" lon="2.01502">
        <ele>174.9</ele>
        <time>2021-05-19T13:49:40.000+02:00</time>
      </trkpt>
      <trkpt lat="48.76128" lon="2.01488">
        <ele>172.3</ele>
        <time>2021-05-19T13:49:50.000+02:00</time>
      </trkpt>
      <trkpt lat="48.76127" lon="2.01466">
        <ele>174.7</ele>
        <time>2021-05-19T13:50:00.000+02:00</time>
      </trkpt>
      <trkpt lat="48.76123" lon="2.01446">
        <ele>172.4</ele>
        <time>2021-05-19T13:50:10.000+02:00</time>
      </trkpt>
      <trkpt lat="48.76117" lon="2.0144">
        <ele>166.6</ele>
        <time>2021-05-19T13:50:25.000+02:00</time>
      </trkpt>
      <trkpt lat="48.7611" lon="2.01429">
        <ele>166.1</ele>
        <time>2021-05-19T13:50:35.000+02:00</time>
      </trkpt>
      <trkpt lat="48.761" lon="2.01423">
        <ele>165.6</ele>
        <time>2021-05-19T13:50:45.000+02:00</time>
      </trkpt>
      <trkpt lat="48.76094" lon="2.01412">
        <ele>166.1</ele>
        <time>2021-05-19T13:50:55.000+02:00</time>
      </trkpt>
      <trkpt lat="48.76087" lon="2.01404">
        <ele>161.9</ele>
        <time>2021-05-19T13:51:15.000+02:00</time>
      </trkpt>
      <trkpt lat="48.76092" lon="2.01406">
        <ele>159.4</ele>
        <time>2021-05-19T13:51:45.000+02:00</time>
      </trkpt>
      <trkpt lat="48.761" lon="2.01421">
        <ele>157.3</ele>
        <time>2021-05-19T13:51:55.000+02:00</time>
      </trkpt>
      <trkpt lat="48.76109" lon="2.01422">
        <ele>158.9</ele>
        <time>2021-05-19T13:52:10.000+02:00</time>
      </trkpt>
      <trkpt lat="48.7612" lon="2.0142">
        <ele>159.1</ele>
        <time>2021-05-19T13:52:25.000+02:00</time>
      </trkpt>
      <trkpt lat="48.76127" lon="2.01414">
        <ele>159.5</ele>
        <time>2021-05-19T13:52:40.000+02:00</time>
      </trkpt>
      <trkpt lat="48.76127" lon="2.01399">
        <ele>159.8</ele>
        <time>2021-05-19T13:52:55.000+02:00</time>
      </trkpt>
      <trkpt lat="48.76128" lon="2.01385">
        <ele>161</ele>
        <time>2021-05-19T13:53:05.000+02:00</time>
      </trkpt>
      <trkpt lat="48.76134" lon="2.01367">
        <ele>160.4</ele>
        <time>2021-05-19T13:53:15.000+02:00</time>
      </trkpt>
      <trkpt lat="48.76134" lon="2.01354">
        <ele>161.5</ele>
        <time>2021-05-19T13:53:20.000+02:00</time>
      </trkpt>
      <trkpt lat="48.76138" lon="2.0134">
        <ele>161.8</ele>
        <time>2021-05-19T13:53:30.000+02:00</time>
      </trkpt>
      <trkpt lat="48.7614" lon="2.01326">
        <ele>162.6</ele>
        <time>2021-05-19T13:53:40.000+02:00</time>
      </trkpt>
      <trkpt lat="48.76141" lon="2.01306">
        <ele>164.8</ele>
        <time>2021-05-19T13:53:55.000+02:00</time>
      </trkpt>
      <trkpt lat="48.76142" lon="2.01292">
        <ele>165.7</ele>
        <time>2021-05-19T13:54:05.000+02:00</time>
      </trkpt>
      <trkpt lat="48.76149" lon="2.01279">
        <ele>167.5</ele>
        <time>2021-05-19T13:54:20.000+02:00</time>
      </trkpt>
      <trkpt lat="48.76156" lon="2.0127">
        <ele>167.8</ele>
        <time>2021-05-19T13:54:30.000+02:00</time>
      </trkpt>
      <trkpt lat="48.76167" lon="2.0126">
        <ele>166.3</ele>
        <time>2021-05-19T13:54:45.000+02:00</time>
      </trkpt>
      <trkpt lat="48.76177" lon="2.01252">
        <ele>165.5</ele>
        <time>2021-05-19T13:55:00.000+02:00</time>
      </trkpt>
      <trkpt lat="48.76187" lon="2.01241">
        <ele>164.4</ele>
        <time>2021-05-19T13:55:15.000+02:00</time>
      </trkpt>
      <trkpt lat="48.76196" lon="2.01231">
        <ele>163.4</ele>
        <time>2021-05-19T13:55:25.000+02:00</time>
      </trkpt>
      <trkpt lat="48.7621" lon="2.01218">
        <ele>162</ele>
        <time>2021-05-19T13:55:35.000+02:00</time>
      </trkpt>
      <trkpt lat="48.76217" lon="2.0121">
        <ele>160.7</ele>
        <time>2021-05-19T13:55:40.000+02:00</time>
      </trkpt>
      <trkpt lat="48.76227" lon="2.01202">
        <ele>159.9</ele>
        <time>2021-05-19T13:55:45.000+02:00</time>
      </trkpt>
      <trkpt lat="48.76235" lon="2.01213">
        <ele>160.7</ele>
        <time>2021-05-19T13:56:05.000+02:00</time>
      </trkpt>
      <trkpt lat="48.76243" lon="2.01217">
        <ele>159.8</ele>
        <time>2021-05-19T13:56:25.000+02:00</time>
      </trkpt>
      <trkpt lat="48.76247" lon="2.01231">
        <ele>160.8</ele>
        <time>2021-05-19T13:56:35.000+02:00</time>
      </trkpt>
      <trkpt lat="48.76249" lon="2.01248">
        <ele>162.9</ele>
        <time>2021-05-19T13:56:50.000+02:00</time>
      </trkpt>
      <trkpt lat="48.76255" lon="2.01259">
        <ele>166.8</ele>
        <time>2021-05-19T13:57:00.000+02:00</time>
      </trkpt>
      <trkpt lat="48.76261" lon="2.01269">
        <ele>166.8</ele>
        <time>2021-05-19T13:57:10.000+02:00</time>
      </trkpt>
      <trkpt lat="48.76259" lon="2.01282">
        <ele>168.2</ele>
        <time>2021-05-19T13:57:25.000+02:00</time>
      </trkpt>
      <trkpt lat="48.76268" lon="2.01296">
        <ele>165.9</ele>
        <time>2021-05-19T13:57:40.000+02:00</time>
      </trkpt>
      <trkpt lat="48.76265" lon="2.01307">
        <ele>162.7</ele>
        <time>2021-05-19T13:57:55.000+02:00</time>
      </trkpt>
      <trkpt lat="48.76274" lon="2.01307">
        <ele>166.4</ele>
        <time>2021-05-19T13:58:10.000+02:00</time>
      </trkpt>
      <trkpt lat="48.76281" lon="2.0131">
        <ele>164</ele>
        <time>2021-05-19T13:58:35.000+02:00</time>
      </trkpt>
      <trkpt lat="48.76279" lon="2.01322">
        <ele>163.5</ele>
        <time>2021-05-19T13:58:55.000+02:00</time>
      </trkpt>
      <trkpt lat="48.76283" lon="2.01334">
        <ele>163.9</ele>
        <time>2021-05-19T13:59:05.000+02:00</time>
      </trkpt>
      <trkpt lat="48.76289" lon="2.0135">
        <ele>166.2</ele>
        <time>2021-05-19T13:59:20.000+02:00</time>
      </trkpt>
      <trkpt lat="48.76295" lon="2.01366">
        <ele>168.5</ele>
        <time>2021-05-19T13:59:35.000+02:00</time>
      </trkpt>
      <trkpt lat="48.76302" lon="2.01378">
        <ele>170.5</ele>
        <time>2021-05-19T13:59:45.000+02:00</time>
      </trkpt>
      <trkpt lat="48.7631" lon="2.0139">
        <ele>170.4</ele>
        <time>2021-05-19T13:59:55.000+02:00</time>
      </trkpt>
      <trkpt lat="48.7632" lon="2.01399">
        <ele>171.2</ele>
        <time>2021-05-19T14:00:05.000+02:00</time>
      </trkpt>
      <trkpt lat="48.76327" lon="2.01396">
        <ele>171.4</ele>
        <time>2021-05-19T14:00:20.000+02:00</time>
      </trkpt>
      <trkpt lat="48.76328" lon="2.01377">
        <ele>172.2</ele>
        <time>2021-05-19T14:00:30.000+02:00</time>
      </trkpt>
      <trkpt lat="48.76329" lon="2.01361">
        <ele>172.1</ele>
        <time>2021-05-19T14:00:40.000+02:00</time>
      </trkpt>
      <trkpt lat="48.76326" lon="2.01347">
        <ele>173.8</ele>
        <time>2021-05-19T14:00:50.000+02:00</time>
      </trkpt>
      <trkpt lat="48.7633" lon="2.01329">
        <ele>174.8</ele>
        <time>2021-05-19T14:01:05.000+02:00</time>
      </trkpt>
      <trkpt lat="48.76334" lon="2.01309">
        <ele>173.8</ele>
        <time>2021-05-19T14:01:15.000+02:00</time>
      </trkpt>
      <trkpt lat="48.7634" lon="2.01289">
        <ele>173.1</ele>
        <time>2021-05-19T14:01:25.000+02:00</time>
      </trkpt>
      <trkpt lat="48.76345" lon="2.01273">
        <ele>173.2</ele>
        <time>2021-05-19T14:01:40.000+02:00</time>
      </trkpt>
      <trkpt lat="48.76351" lon="2.01258">
        <ele>171.7</ele>
        <time>2021-05-19T14:01:50.000+02:00</time>
      </trkpt>
      <trkpt lat="48.76354" lon="2.01241">
        <ele>173.6</ele>
        <time>2021-05-19T14:02:05.000+02:00</time>
      </trkpt>
      <trkpt lat="48.76359" lon="2.01221">
        <ele>172.4</ele>
        <time>2021-05-19T14:02:15.000+02:00</time>
      </trkpt>
      <trkpt lat="48.76361" lon="2.012">
        <ele>172.9</ele>
        <time>2021-05-19T14:02:30.000+02:00</time>
      </trkpt>
      <trkpt lat="48.76362" lon="2.01186">
        <ele>174.3</ele>
        <time>2021-05-19T14:02:45.000+02:00</time>
      </trkpt>
      <trkpt lat="48.76368" lon="2.01167">
        <ele>174.2</ele>
        <time>2021-05-19T14:02:55.000+02:00</time>
      </trkpt>
      <trkpt lat="48.76372" lon="2.01147">
        <ele>174.7</ele>
        <time>2021-05-19T14:03:05.000+02:00</time>
      </trkpt>
      <trkpt lat="48.76379" lon="2.01125">
        <ele>175.5</ele>
        <time>2021-05-19T14:03:15.000+02:00</time>
      </trkpt>
      <trkpt lat="48.76385" lon="2.01097">
        <ele>175.1</ele>
        <time>2021-05-19T14:03:30.000+02:00</time>
      </trkpt>
      <trkpt lat="48.76383" lon="2.01082">
        <ele>176</ele>
        <time>2021-05-19T14:03:45.000+02:00</time>
      </trkpt>
      <trkpt lat="48.76383" lon="2.01069">
        <ele>175.3</ele>
        <time>2021-05-19T14:03:55.000+02:00</time>
      </trkpt>
      <trkpt lat="48.76387" lon="2.01052">
        <ele>174.6</ele>
        <time>2021-05-19T14:04:05.000+02:00</time>
      </trkpt>
      <trkpt lat="48.76392" lon="2.01036">
        <ele>174.8</ele>
        <time>2021-05-19T14:04:15.000+02:00</time>
      </trkpt>
      <trkpt lat="48.76397" lon="2.01019">
        <ele>174.7</ele>
        <time>2021-05-19T14:04:25.000+02:00</time>
      </trkpt>
      <trkpt lat="48.76401" lon="2.01006">
        <ele>173.4</ele>
        <time>2021-05-19T14:04:35.000+02:00</time>
      </trkpt>
      <trkpt lat="48.76405" lon="2.00984">
        <ele>173</ele>
        <time>2021-05-19T14:04:50.000+02:00</time>
      </trkpt>
      <trkpt lat="48.76408" lon="2.00964">
        <ele>171.7</ele>
        <time>2021-05-19T14:05:00.000+02:00</time>
      </trkpt>
      <trkpt lat="48.76411" lon="2.00947">
        <ele>173</ele>
        <time>2021-05-19T14:05:10.000+02:00</time>
      </trkpt>
      <trkpt lat="48.76413" lon="2.00933">
        <ele>174.4</ele>
        <time>2021-05-19T14:05:20.000+02:00</time>
      </trkpt>
      <trkpt lat="48.76416" lon="2.00917">
        <ele>174.4</ele>
        <time>2021-05-19T14:05:30.000+02:00</time>
      </trkpt>
      <trkpt lat="48.76422" lon="2.00904">
        <ele>174.6</ele>
        <time>2021-05-19T14:05:40.000+02:00</time>
      </trkpt>
      <trkpt lat="48.76433" lon="2.00882">
        <ele>174.8</ele>
        <time>2021-05-19T14:05:50.000+02:00</time>
      </trkpt>
      <trkpt lat="48.76441" lon="2.00869">
        <ele>175.9</ele>
        <time>2021-05-19T14:06:00.000+02:00</time>
      </trkpt>
      <trkpt lat="48.76444" lon="2.00849">
        <ele>182</ele>
        <time>2021-05-19T14:06:15.000+02:00</time>
      </trkpt>
      <trkpt lat="48.76447" lon="2.0083">
        <ele>177.8</ele>
        <time>2021-05-19T14:06:25.000+02:00</time>
      </trkpt>
      <trkpt lat="48.76449" lon="2.00815">
        <ele>175.6</ele>
        <time>2021-05-19T14:06:35.000+02:00</time>
      </trkpt>
      <trkpt lat="48.76445" lon="2.00802">
        <ele>179.5</ele>
        <time>2021-05-19T14:06:45.000+02:00</time>
      </trkpt>
      <trkpt lat="48.76448" lon="2.00783">
        <ele>179.4</ele>
        <time>2021-05-19T14:07:00.000+02:00</time>
      </trkpt>
      <trkpt lat="48.76451" lon="2.00767">
        <ele>176.6</ele>
        <time>2021-05-19T14:07:10.000+02:00</time>
      </trkpt>
      <trkpt lat="48.76461" lon="2.00748">
        <ele>183.9</ele>
        <time>2021-05-19T14:07:25.000+02:00</time>
      </trkpt>
      <trkpt lat="48.76462" lon="2.00735">
        <ele>184.9</ele>
        <time>2021-05-19T14:07:40.000+02:00</time>
      </trkpt>
      <trkpt lat="48.76465" lon="2.00722">
        <ele>184.2</ele>
        <time>2021-05-19T14:07:45.000+02:00</time>
      </trkpt>
      <trkpt lat="48.76469" lon="2.00703">
        <ele>186.3</ele>
        <time>2021-05-19T14:07:55.000+02:00</time>
      </trkpt>
      <trkpt lat="48.76474" lon="2.00681">
        <ele>175.7</ele>
        <time>2021-05-19T14:08:05.000+02:00</time>
      </trkpt>
      <trkpt lat="48.76471" lon="2.00663">
        <ele>187.8</ele>
        <time>2021-05-19T14:08:15.000+02:00</time>
      </trkpt>
      <trkpt lat="48.76469" lon="2.00641">
        <ele>200</ele>
        <time>2021-05-19T14:08:30.000+02:00</time>
      </trkpt>
      <trkpt lat="48.76461" lon="2.00624">
        <ele>208</ele>
        <time>2021-05-19T14:08:40.000+02:00</time>
      </trkpt>
      <trkpt lat="48.76455" lon="2.00607">
        <ele>173.1</ele>
        <time>2021-05-19T14:08:55.000+02:00</time>
      </trkpt>
      <trkpt lat="48.76461" lon="2.00591">
        <ele>228.9</ele>
        <time>2021-05-19T14:09:00.000+02:00</time>
      </trkpt>
      <trkpt lat="48.76458" lon="2.0057">
        <ele>219.5</ele>
        <time>2021-05-19T14:09:10.000+02:00</time>
      </trkpt>
      <trkpt lat="48.76445" lon="2.00558">
        <ele>213.4</ele>
        <time>2021-05-19T14:09:20.000+02:00</time>
      </trkpt>
      <trkpt lat="48.76435" lon="2.00547">
        <ele>199.1</ele>
        <time>2021-05-19T14:09:30.000+02:00</time>
      </trkpt>
      <trkpt lat="48.76424" lon="2.00538">
        <ele>192.5</ele>
        <time>2021-05-19T14:09:40.000+02:00</time>
      </trkpt>
      <trkpt lat="48.76417" lon="2.00521">
        <ele>183.8</ele>
        <time>2021-05-19T14:09:50.000+02:00</time>
      </trkpt>
      <trkpt lat="48.76408" lon="2.0051">
        <ele>172.3</ele>
        <time>2021-05-19T14:10:00.000+02:00</time>
      </trkpt>
      <trkpt lat="48.76401" lon="2.00501">
        <ele>165.7</ele>
        <time>2021-05-19T14:10:10.000+02:00</time>
      </trkpt>
      <trkpt lat="48.76395" lon="2.00487">
        <ele>165.8</ele>
        <time>2021-05-19T14:10:20.000+02:00</time>
      </trkpt>
      <trkpt lat="48.76389" lon="2.00474">
        <ele>163.3</ele>
        <time>2021-05-19T14:10:30.000+02:00</time>
      </trkpt>
      <trkpt lat="48.76385" lon="2.00454">
        <ele>163.4</ele>
        <time>2021-05-19T14:10:45.000+02:00</time>
      </trkpt>
      <trkpt lat="48.76381" lon="2.0044">
        <ele>163.1</ele>
        <time>2021-05-19T14:10:55.000+02:00</time>
      </trkpt>
      <trkpt lat="48.76376" lon="2.00428">
        <ele>160.6</ele>
        <time>2021-05-19T14:11:05.000+02:00</time>
      </trkpt>
      <trkpt lat="48.76376" lon="2.00406">
        <ele>158.8</ele>
        <time>2021-05-19T14:11:15.000+02:00</time>
      </trkpt>
      <trkpt lat="48.76371" lon="2.00392">
        <ele>160.8</ele>
        <time>2021-05-19T14:11:25.000+02:00</time>
      </trkpt>
      <trkpt lat="48.76364" lon="2.0038">
        <ele>163.6</ele>
        <time>2021-05-19T14:11:35.000+02:00</time>
      </trkpt>
      <trkpt lat="48.76356" lon="2.0037">
        <ele>164.5</ele>
        <time>2021-05-19T14:11:45.000+02:00</time>
      </trkpt>
      <trkpt lat="48.7635" lon="2.00359">
        <ele>166.1</ele>
        <time>2021-05-19T14:11:55.000+02:00</time>
      </trkpt>
      <trkpt lat="48.76351" lon="2.00352">
        <ele>171.1</ele>
        <time>2021-05-19T14:12:35.000+02:00</time>
      </trkpt>
      <trkpt lat="48.76346" lon="2.00342">
        <ele>171.6</ele>
        <time>2021-05-19T14:13:10.000+02:00</time>
      </trkpt>
      <trkpt lat="48.76341" lon="2.00323">
        <ele>169.3</ele>
        <time>2021-05-19T14:13:25.000+02:00</time>
      </trkpt>
      <trkpt lat="48.76333" lon="2.00312">
        <ele>170.1</ele>
        <time>2021-05-19T14:13:35.000+02:00</time>
      </trkpt>
      <trkpt lat="48.76325" lon="2.00298">
        <ele>171.6</ele>
        <time>2021-05-19T14:13:50.000+02:00</time>
      </trkpt>
      <trkpt lat="48.7632" lon="2.00286">
        <ele>170.4</ele>
        <time>2021-05-19T14:14:00.000+02:00</time>
      </trkpt>
      <trkpt lat="48.76313" lon="2.00273">
        <ele>169.9</ele>
        <time>2021-05-19T14:14:10.000+02:00</time>
      </trkpt>
      <trkpt lat="48.76305" lon="2.00261">
        <ele>170.8</ele>
        <time>2021-05-19T14:14:20.000+02:00</time>
      </trkpt>
      <trkpt lat="48.76299" lon="2.00244">
        <ele>172.4</ele>
        <time>2021-05-19T14:14:30.000+02:00</time>
      </trkpt>
      <trkpt lat="48.76296" lon="2.00231">
        <ele>172</ele>
        <time>2021-05-19T14:14:40.000+02:00</time>
      </trkpt>
      <trkpt lat="48.76291" lon="2.00215">
        <ele>169.7</ele>
        <time>2021-05-19T14:14:50.000+02:00</time>
      </trkpt>
      <trkpt lat="48.76286" lon="2.00203">
        <ele>170.6</ele>
        <time>2021-05-19T14:15:00.000+02:00</time>
      </trkpt>
      <trkpt lat="48.76282" lon="2.00187">
        <ele>171.8</ele>
        <time>2021-05-19T14:15:10.000+02:00</time>
      </trkpt>
      <trkpt lat="48.76273" lon="2.00175">
        <ele>167.2</ele>
        <time>2021-05-19T14:15:20.000+02:00</time>
      </trkpt>
      <trkpt lat="48.76271" lon="2.0016">
        <ele>167.9</ele>
        <time>2021-05-19T14:15:30.000+02:00</time>
      </trkpt>
      <trkpt lat="48.76265" lon="2.00146">
        <ele>168.1</ele>
        <time>2021-05-19T14:15:40.000+02:00</time>
      </trkpt>
      <trkpt lat="48.76258" lon="2.00132">
        <ele>171.3</ele>
        <time>2021-05-19T14:15:55.000+02:00</time>
      </trkpt>
      <trkpt lat="48.76251" lon="2.00118">
        <ele>173.3</ele>
        <time>2021-05-19T14:16:10.000+02:00</time>
      </trkpt>
      <trkpt lat="48.76246" lon="2.00104">
        <ele>175.6</ele>
        <time>2021-05-19T14:16:20.000+02:00</time>
      </trkpt>
      <trkpt lat="48.76242" lon="2.00089">
        <ele>176.6</ele>
        <time>2021-05-19T14:16:35.000+02:00</time>
      </trkpt>
      <trkpt lat="48.76236" lon="2.00078">
        <ele>176.5</ele>
        <time>2021-05-19T14:16:45.000+02:00</time>
      </trkpt>
      <trkpt lat="48.76234" lon="2.00065">
        <ele>178.2</ele>
        <time>2021-05-19T14:17:00.000+02:00</time>
      </trkpt>
      <trkpt lat="48.76226" lon="2.00056">
        <ele>179.4</ele>
        <time>2021-05-19T14:17:20.000+02:00</time>
      </trkpt>
      <trkpt lat="48.76221" lon="2.0004">
        <ele>176.1</ele>
        <time>2021-05-19T14:17:35.000+02:00</time>
      </trkpt>
      <trkpt lat="48.76221" lon="2.00026">
        <ele>177.7</ele>
        <time>2021-05-19T14:17:45.000+02:00</time>
      </trkpt>
      <trkpt lat="48.76218" lon="2.00011">
        <ele>179.2</ele>
        <time>2021-05-19T14:17:55.000+02:00</time>
      </trkpt>
      <trkpt lat="48.76215" lon="1.99997">
        <ele>180.4</ele>
        <time>2021-05-19T14:18:10.000+02:00</time>
      </trkpt>
      <trkpt lat="48.76205" lon="1.99988">
        <ele>182.4</ele>
        <time>2021-05-19T14:18:35.000+02:00</time>
      </trkpt>
      <trkpt lat="48.76198" lon="1.99977">
        <ele>180.6</ele>
        <time>2021-05-19T14:18:45.000+02:00</time>
      </trkpt>
      <trkpt lat="48.76197" lon="1.99971">
        <ele>181.2</ele>
        <time>2021-05-19T14:19:30.000+02:00</time>
      </trkpt>
      <trkpt lat="48.76189" lon="1.99962">
        <ele>181.2</ele>
        <time>2021-05-19T14:19:40.000+02:00</time>
      </trkpt>
      <trkpt lat="48.7618" lon="1.99961">
        <ele>179.1</ele>
        <time>2021-05-19T14:19:50.000+02:00</time>
      </trkpt>
      <trkpt lat="48.76178" lon="1.99947">
        <ele>177.4</ele>
        <time>2021-05-19T14:20:10.000+02:00</time>
      </trkpt>
      <trkpt lat="48.76177" lon="1.99932">
        <ele>175.8</ele>
        <time>2021-05-19T14:20:20.000+02:00</time>
      </trkpt>
      <trkpt lat="48.7617" lon="1.99919">
        <ele>173.2</ele>
        <time>2021-05-19T14:20:30.000+02:00</time>
      </trkpt>
      <trkpt lat="48.7616" lon="1.99906">
        <ele>171.1</ele>
        <time>2021-05-19T14:20:40.000+02:00</time>
      </trkpt>
      <trkpt lat="48.7615" lon="1.99894">
        <ele>172.2</ele>
        <time>2021-05-19T14:20:50.000+02:00</time>
      </trkpt>
      <trkpt lat="48.76147" lon="1.99879">
        <ele>172</ele>
        <time>2021-05-19T14:21:05.000+02:00</time>
      </trkpt>
      <trkpt lat="48.76143" lon="1.99866">
        <ele>171.1</ele>
        <time>2021-05-19T14:21:15.000+02:00</time>
      </trkpt>
      <trkpt lat="48.76136" lon="1.99858">
        <ele>171.6</ele>
        <time>2021-05-19T14:21:25.000+02:00</time>
      </trkpt>
      <trkpt lat="48.76132" lon="1.99844">
        <ele>171.4</ele>
        <time>2021-05-19T14:21:35.000+02:00</time>
      </trkpt>
      <trkpt lat="48.76124" lon="1.99829">
        <ele>170</ele>
        <time>2021-05-19T14:21:50.000+02:00</time>
      </trkpt>
      <trkpt lat="48.76119" lon="1.99815">
        <ele>167.5</ele>
        <time>2021-05-19T14:22:00.000+02:00</time>
      </trkpt>
      <trkpt lat="48.76113" lon="1.99799">
        <ele>167.6</ele>
        <time>2021-05-19T14:22:10.000+02:00</time>
      </trkpt>
      <trkpt lat="48.76104" lon="1.99781">
        <ele>170.3</ele>
        <time>2021-05-19T14:22:20.000+02:00</time>
      </trkpt>
      <trkpt lat="48.76098" lon="1.99768">
        <ele>171</ele>
        <time>2021-05-19T14:22:30.000+02:00</time>
      </trkpt>
      <trkpt lat="48.76096" lon="1.99752">
        <ele>172.8</ele>
        <time>2021-05-19T14:22:40.000+02:00</time>
      </trkpt>
      <trkpt lat="48.76091" lon="1.99738">
        <ele>172.9</ele>
        <time>2021-05-19T14:22:50.000+02:00</time>
      </trkpt>
      <trkpt lat="48.76087" lon="1.99726">
        <ele>174.3</ele>
        <time>2021-05-19T14:23:00.000+02:00</time>
      </trkpt>
      <trkpt lat="48.76081" lon="1.99712">
        <ele>171.4</ele>
        <time>2021-05-19T14:23:10.000+02:00</time>
      </trkpt>
      <trkpt lat="48.76076" lon="1.99694">
        <ele>170.9</ele>
        <time>2021-05-19T14:23:20.000+02:00</time>
      </trkpt>
      <trkpt lat="48.76071" lon="1.99681">
        <ele>172.3</ele>
        <time>2021-05-19T14:23:30.000+02:00</time>
      </trkpt>
      <trkpt lat="48.76068" lon="1.99666">
        <ele>173.2</ele>
        <time>2021-05-19T14:23:40.000+02:00</time>
      </trkpt>
      <trkpt lat="48.76057" lon="1.99657">
        <ele>170.1</ele>
        <time>2021-05-19T14:23:55.000+02:00</time>
      </trkpt>
      <trkpt lat="48.76046" lon="1.99647">
        <ele>171.7</ele>
        <time>2021-05-19T14:24:10.000+02:00</time>
      </trkpt>
      <trkpt lat="48.76042" lon="1.99628">
        <ele>173.8</ele>
        <time>2021-05-19T14:24:25.000+02:00</time>
      </trkpt>
      <trkpt lat="48.76043" lon="1.99612">
        <ele>173.5</ele>
        <time>2021-05-19T14:24:35.000+02:00</time>
      </trkpt>
      <trkpt lat="48.76039" lon="1.99596">
        <ele>173.4</ele>
        <time>2021-05-19T14:24:50.000+02:00</time>
      </trkpt>
      <trkpt lat="48.76033" lon="1.99584">
        <ele>176.3</ele>
        <time>2021-05-19T14:25:00.000+02:00</time>
      </trkpt>
      <trkpt lat="48.76028" lon="1.99568">
        <ele>177.8</ele>
        <time>2021-05-19T14:25:15.000+02:00</time>
      </trkpt>
      <trkpt lat="48.76017" lon="1.99563">
        <ele>177.7</ele>
        <time>2021-05-19T14:25:35.000+02:00</time>
      </trkpt>
      <trkpt lat="48.76006" lon="1.99572">
        <ele>178.7</ele>
        <time>2021-05-19T14:25:50.000+02:00</time>
      </trkpt>
      <trkpt lat="48.75998" lon="1.99582">
        <ele>180.6</ele>
        <time>2021-05-19T14:26:00.000+02:00</time>
      </trkpt>
      <trkpt lat="48.75993" lon="1.99593">
        <ele>179.9</ele>
        <time>2021-05-19T14:26:15.000+02:00</time>
      </trkpt>
      <trkpt lat="48.75981" lon="1.99595">
        <ele>180</ele>
        <time>2021-05-19T14:26:45.000+02:00</time>
      </trkpt>
      <trkpt lat="48.75977" lon="1.99612">
        <ele>177.6</ele>
        <time>2021-05-19T14:27:00.000+02:00</time>
      </trkpt>
      <trkpt lat="48.75985" lon="1.99622">
        <ele>176.7</ele>
        <time>2021-05-19T14:27:25.000+02:00</time>
      </trkpt>
      <trkpt lat="48.75976" lon="1.99634">
        <ele>178.6</ele>
        <time>2021-05-19T14:27:45.000+02:00</time>
      </trkpt>
      <trkpt lat="48.75965" lon="1.99643">
        <ele>176.6</ele>
        <time>2021-05-19T14:27:55.000+02:00</time>
      </trkpt>
      <trkpt lat="48.75955" lon="1.99651">
        <ele>177.4</ele>
        <time>2021-05-19T14:28:05.000+02:00</time>
      </trkpt>
      <trkpt lat="48.75948" lon="1.99661">
        <ele>176.6</ele>
        <time>2021-05-19T14:28:15.000+02:00</time>
      </trkpt>
      <trkpt lat="48.75941" lon="1.99672">
        <ele>178.3</ele>
        <time>2021-05-19T14:28:25.000+02:00</time>
      </trkpt>
      <trkpt lat="48.75934" lon="1.99682">
        <ele>179.1</ele>
        <time>2021-05-19T14:28:35.000+02:00</time>
      </trkpt>
      <trkpt lat="48.75923" lon="1.99693">
        <ele>178.4</ele>
        <time>2021-05-19T14:28:45.000+02:00</time>
      </trkpt>
      <trkpt lat="48.75917" lon="1.99704">
        <ele>178.6</ele>
        <time>2021-05-19T14:28:55.000+02:00</time>
      </trkpt>
      <trkpt lat="48.75906" lon="1.99714">
        <ele>179.4</ele>
        <time>2021-05-19T14:29:05.000+02:00</time>
      </trkpt>
      <trkpt lat="48.75896" lon="1.99721">
        <ele>180.8</ele>
        <time>2021-05-19T14:29:15.000+02:00</time>
      </trkpt>
      <trkpt lat="48.75887" lon="1.99734">
        <ele>179.7</ele>
        <time>2021-05-19T14:29:25.000+02:00</time>
      </trkpt>
      <trkpt lat="48.75877" lon="1.99747">
        <ele>179</ele>
        <time>2021-05-19T14:29:35.000+02:00</time>
      </trkpt>
      <trkpt lat="48.75867" lon="1.9976">
        <ele>176.9</ele>
        <time>2021-05-19T14:29:45.000+02:00</time>
      </trkpt>
      <trkpt lat="48.75859" lon="1.99773">
        <ele>178.4</ele>
        <time>2021-05-19T14:29:55.000+02:00</time>
      </trkpt>
      <trkpt lat="48.75851" lon="1.99782">
        <ele>180.3</ele>
        <time>2021-05-19T14:30:05.000+02:00</time>
      </trkpt>
      <trkpt lat="48.75843" lon="1.99792">
        <ele>182.8</ele>
        <time>2021-05-19T14:30:15.000+02:00</time>
      </trkpt>
      <trkpt lat="48.75833" lon="1.99803">
        <ele>181.8</ele>
        <time>2021-05-19T14:30:25.000+02:00</time>
      </trkpt>
      <trkpt lat="48.75823" lon="1.99812">
        <ele>180.9</ele>
        <time>2021-05-19T14:30:35.000+02:00</time>
      </trkpt>
      <trkpt lat="48.75813" lon="1.9982">
        <ele>182.6</ele>
        <time>2021-05-19T14:30:45.000+02:00</time>
      </trkpt>
      <trkpt lat="48.75803" lon="1.99834">
        <ele>180.4</ele>
        <time>2021-05-19T14:30:55.000+02:00</time>
      </trkpt>
      <trkpt lat="48.75794" lon="1.99844">
        <ele>180.5</ele>
        <time>2021-05-19T14:31:05.000+02:00</time>
      </trkpt>
      <trkpt lat="48.75791" lon="1.99856">
        <ele>181.4</ele>
        <time>2021-05-19T14:31:15.000+02:00</time>
      </trkpt>
      <trkpt lat="48.7578" lon="1.99868">
        <ele>180.4</ele>
        <time>2021-05-19T14:31:25.000+02:00</time>
      </trkpt>
      <trkpt lat="48.75771" lon="1.99881">
        <ele>177.6</ele>
        <time>2021-05-19T14:31:35.000+02:00</time>
      </trkpt>
      <trkpt lat="48.75759" lon="1.99891">
        <ele>178.4</ele>
        <time>2021-05-19T14:31:45.000+02:00</time>
      </trkpt>
      <trkpt lat="48.75749" lon="1.99901">
        <ele>180.3</ele>
        <time>2021-05-19T14:31:55.000+02:00</time>
      </trkpt>
      <trkpt lat="48.75736" lon="1.99909">
        <ele>178.7</ele>
        <time>2021-05-19T14:32:05.000+02:00</time>
      </trkpt>
      <trkpt lat="48.75724" lon="1.99918">
        <ele>179.8</ele>
        <time>2021-05-19T14:32:15.000+02:00</time>
      </trkpt>
      <trkpt lat="48.75729" lon="1.99927">
        <ele>186.6</ele>
        <time>2021-05-19T14:32:30.000+02:00</time>
      </trkpt>
      <trkpt lat="48.75717" lon="1.99928">
        <ele>179.8</ele>
        <time>2021-05-19T14:32:50.000+02:00</time>
      </trkpt>
      <trkpt lat="48.7571" lon="1.99932">
        <ele>177.2</ele>
        <time>2021-05-19T14:33:20.000+02:00</time>
      </trkpt>
      <trkpt lat="48.75708" lon="1.99932">
        <ele>177.8</ele>
        <time>2021-05-19T14:33:50.000+02:00</time>
      </trkpt>
      <trkpt lat="48.7571" lon="1.99927">
        <ele>183.3</ele>
        <time>2021-05-19T14:34:30.000+02:00</time>
      </trkpt>
      <trkpt lat="48.75708" lon="1.9992">
        <ele>179.5</ele>
        <time>2021-05-19T14:35:30.000+02:00</time>
      </trkpt>
      <trkpt lat="48.75698" lon="1.99912">
        <ele>181.5</ele>
        <time>2021-05-19T14:35:45.000+02:00</time>
      </trkpt>
      <trkpt lat="48.75697" lon="1.99919">
        <ele>174</ele>
        <time>2021-05-19T14:36:00.000+02:00</time>
      </trkpt>
      <trkpt lat="48.75707" lon="1.99927">
        <ele>174</ele>
        <time>2021-05-19T14:36:10.000+02:00</time>
      </trkpt>
      <trkpt lat="48.75707" lon="1.99912">
        <ele>174.8</ele>
        <time>2021-05-19T14:36:35.000+02:00</time>
      </trkpt>
      <trkpt lat="48.75702" lon="1.99892">
        <ele>172.3</ele>
        <time>2021-05-19T14:36:50.000+02:00</time>
      </trkpt>
      <trkpt lat="48.75695" lon="1.99883">
        <ele>172.1</ele>
        <time>2021-05-19T14:37:00.000+02:00</time>
      </trkpt>
      <trkpt lat="48.75689" lon="1.9987">
        <ele>170.3</ele>
        <time>2021-05-19T14:37:10.000+02:00</time>
      </trkpt>
      <trkpt lat="48.75685" lon="1.99858">
        <ele>171.5</ele>
        <time>2021-05-19T14:37:20.000+02:00</time>
      </trkpt>
      <trkpt lat="48.7568" lon="1.99845">
        <ele>172.6</ele>
        <time>2021-05-19T14:37:30.000+02:00</time>
      </trkpt>
      <trkpt lat="48.75676" lon="1.9983">
        <ele>173</ele>
        <time>2021-05-19T14:37:40.000+02:00</time>
      </trkpt>
      <trkpt lat="48.75669" lon="1.99813">
        <ele>172.6</ele>
        <time>2021-05-19T14:37:50.000+02:00</time>
      </trkpt>
      <trkpt lat="48.75662" lon="1.99796">
        <ele>171.6</ele>
        <time>2021-05-19T14:38:00.000+02:00</time>
      </trkpt>
      <trkpt lat="48.75657" lon="1.99784">
        <ele>171.2</ele>
        <time>2021-05-19T14:38:10.000+02:00</time>
      </trkpt>
      <trkpt lat="48.75654" lon="1.99767">
        <ele>169.9</ele>
        <time>2021-05-19T14:38:20.000+02:00</time>
      </trkpt>
      <trkpt lat="48.75649" lon="1.99755">
        <ele>170.6</ele>
        <time>2021-05-19T14:38:30.000+02:00</time>
      </trkpt>
      <trkpt lat="48.75643" lon="1.9974">
        <ele>170.6</ele>
        <time>2021-05-19T14:38:40.000+02:00</time>
      </trkpt>
      <trkpt lat="48.75637" lon="1.99722">
        <ele>169</ele>
        <time>2021-05-19T14:38:50.000+02:00</time>
      </trkpt>
      <trkpt lat="48.7563" lon="1.99711">
        <ele>168.9</ele>
        <time>2021-05-19T14:39:00.000+02:00</time>
      </trkpt>
      <trkpt lat="48.75623" lon="1.99696">
        <ele>168.8</ele>
        <time>2021-05-19T14:39:10.000+02:00</time>
      </trkpt>
      <trkpt lat="48.75615" lon="1.99683">
        <ele>170</ele>
        <time>2021-05-19T14:39:20.000+02:00</time>
      </trkpt>
      <trkpt lat="48.75609" lon="1.99667">
        <ele>170.4</ele>
        <time>2021-05-19T14:39:30.000+02:00</time>
      </trkpt>
      <trkpt lat="48.75604" lon="1.99649">
        <ele>169.8</ele>
        <time>2021-05-19T14:39:40.000+02:00</time>
      </trkpt>
      <trkpt lat="48.75596" lon="1.99637">
        <ele>170.6</ele>
        <time>2021-05-19T14:39:55.000+02:00</time>
      </trkpt>
      <trkpt lat="48.75602" lon="1.99637">
        <ele>172.8</ele>
        <time>2021-05-19T14:40:20.000+02:00</time>
      </trkpt>
      <trkpt lat="48.75592" lon="1.99627">
        <ele>174.8</ele>
        <time>2021-05-19T14:40:25.000+02:00</time>
      </trkpt>
      <trkpt lat="48.75594" lon="1.99625">
        <ele>171.6</ele>
        <time>2021-05-19T14:40:45.000+02:00</time>
      </trkpt>
      <trkpt lat="48.7559" lon="1.9961">
        <ele>171.3</ele>
        <time>2021-05-19T14:40:55.000+02:00</time>
      </trkpt>
      <trkpt lat="48.75584" lon="1.99588">
        <ele>171.1</ele>
        <time>2021-05-19T14:41:10.000+02:00</time>
      </trkpt>
      <trkpt lat="48.75577" lon="1.99576">
        <ele>171.3</ele>
        <time>2021-05-19T14:41:20.000+02:00</time>
      </trkpt>
      <trkpt lat="48.75572" lon="1.99561">
        <ele>170.2</ele>
        <time>2021-05-19T14:41:35.000+02:00</time>
      </trkpt>
      <trkpt lat="48.75565" lon="1.99548">
        <ele>173.1</ele>
        <time>2021-05-19T14:41:55.000+02:00</time>
      </trkpt>
      <trkpt lat="48.75559" lon="1.99538">
        <ele>175.5</ele>
        <time>2021-05-19T14:42:05.000+02:00</time>
      </trkpt>
      <trkpt lat="48.75552" lon="1.99519">
        <ele>174.1</ele>
        <time>2021-05-19T14:42:15.000+02:00</time>
      </trkpt>
      <trkpt lat="48.75545" lon="1.99506">
        <ele>172.9</ele>
        <time>2021-05-19T14:42:25.000+02:00</time>
      </trkpt>
      <trkpt lat="48.75541" lon="1.99492">
        <ele>171.6</ele>
        <time>2021-05-19T14:42:35.000+02:00</time>
      </trkpt>
      <trkpt lat="48.75538" lon="1.99475">
        <ele>170.2</ele>
        <time>2021-05-19T14:42:50.000+02:00</time>
      </trkpt>
      <trkpt lat="48.7553" lon="1.99464">
        <ele>170.1</ele>
        <time>2021-05-19T14:43:00.000+02:00</time>
      </trkpt>
      <trkpt lat="48.75523" lon="1.9945">
        <ele>169.1</ele>
        <time>2021-05-19T14:43:15.000+02:00</time>
      </trkpt>
      <trkpt lat="48.75516" lon="1.99434">
        <ele>169.3</ele>
        <time>2021-05-19T14:43:25.000+02:00</time>
      </trkpt>
      <trkpt lat="48.75512" lon="1.99417">
        <ele>169.9</ele>
        <time>2021-05-19T14:43:35.000+02:00</time>
      </trkpt>
      <trkpt lat="48.75507" lon="1.99402">
        <ele>169.7</ele>
        <time>2021-05-19T14:43:45.000+02:00</time>
      </trkpt>
      <trkpt lat="48.75498" lon="1.99386">
        <ele>171.7</ele>
        <time>2021-05-19T14:44:00.000+02:00</time>
      </trkpt>
      <trkpt lat="48.75491" lon="1.99372">
        <ele>170.9</ele>
        <time>2021-05-19T14:44:10.000+02:00</time>
      </trkpt>
      <trkpt lat="48.75485" lon="1.99358">
        <ele>170.9</ele>
        <time>2021-05-19T14:44:20.000+02:00</time>
      </trkpt>
      <trkpt lat="48.75481" lon="1.99345">
        <ele>170.3</ele>
        <time>2021-05-19T14:44:30.000+02:00</time>
      </trkpt>
      <trkpt lat="48.75474" lon="1.99329">
        <ele>169.8</ele>
        <time>2021-05-19T14:44:45.000+02:00</time>
      </trkpt>
      <trkpt lat="48.75469" lon="1.99313">
        <ele>170.2</ele>
        <time>2021-05-19T14:44:55.000+02:00</time>
      </trkpt>
      <trkpt lat="48.75465" lon="1.993">
        <ele>170.4</ele>
        <time>2021-05-19T14:45:05.000+02:00</time>
      </trkpt>
      <trkpt lat="48.75461" lon="1.99287">
        <ele>175.3</ele>
        <time>2021-05-19T14:45:15.000+02:00</time>
      </trkpt>
      <trkpt lat="48.75456" lon="1.99273">
        <ele>174.9</ele>
        <time>2021-05-19T14:45:25.000+02:00</time>
      </trkpt>
      <trkpt lat="48.75449" lon="1.99259">
        <ele>173.9</ele>
        <time>2021-05-19T14:45:40.000+02:00</time>
      </trkpt>
      <trkpt lat="48.75441" lon="1.99248">
        <ele>172.8</ele>
        <time>2021-05-19T14:45:50.000+02:00</time>
      </trkpt>
      <trkpt lat="48.75436" lon="1.99234">
        <ele>172.4</ele>
        <time>2021-05-19T14:46:00.000+02:00</time>
      </trkpt>
      <trkpt lat="48.7543" lon="1.99218">
        <ele>173.1</ele>
        <time>2021-05-19T14:46:10.000+02:00</time>
      </trkpt>
      <trkpt lat="48.75424" lon="1.99206">
        <ele>174.5</ele>
        <time>2021-05-19T14:46:20.000+02:00</time>
      </trkpt>
      <trkpt lat="48.75414" lon="1.9919">
        <ele>174.2</ele>
        <time>2021-05-19T14:46:35.000+02:00</time>
      </trkpt>
      <trkpt lat="48.7541" lon="1.99174">
        <ele>175.8</ele>
        <time>2021-05-19T14:46:45.000+02:00</time>
      </trkpt>
      <trkpt lat="48.75402" lon="1.99167">
        <ele>176.1</ele>
        <time>2021-05-19T14:46:55.000+02:00</time>
      </trkpt>
      <trkpt lat="48.75392" lon="1.99165">
        <ele>173.4</ele>
        <time>2021-05-19T14:47:20.000+02:00</time>
      </trkpt>
      <trkpt lat="48.75383" lon="1.9917">
        <ele>172.2</ele>
        <time>2021-05-19T14:47:40.000+02:00</time>
      </trkpt>
      <trkpt lat="48.75375" lon="1.99174">
        <ele>174.6</ele>
        <time>2021-05-19T14:47:55.000+02:00</time>
      </trkpt>
      <trkpt lat="48.75367" lon="1.99185">
        <ele>176.9</ele>
        <time>2021-05-19T14:48:10.000+02:00</time>
      </trkpt>
      <trkpt lat="48.75359" lon="1.99197">
        <ele>179.8</ele>
        <time>2021-05-19T14:48:20.000+02:00</time>
      </trkpt>
      <trkpt lat="48.75353" lon="1.99209">
        <ele>181.1</ele>
        <time>2021-05-19T14:48:30.000+02:00</time>
      </trkpt>
      <trkpt lat="48.75345" lon="1.99218">
        <ele>181.6</ele>
        <time>2021-05-19T14:48:40.000+02:00</time>
      </trkpt>
      <trkpt lat="48.75338" lon="1.9923">
        <ele>181.3</ele>
        <time>2021-05-19T14:48:50.000+02:00</time>
      </trkpt>
      <trkpt lat="48.7533" lon="1.99246">
        <ele>181.8</ele>
        <time>2021-05-19T14:49:05.000+02:00</time>
      </trkpt>
      <trkpt lat="48.75325" lon="1.99259">
        <ele>182</ele>
        <time>2021-05-19T14:49:15.000+02:00</time>
      </trkpt>
      <trkpt lat="48.75316" lon="1.9927">
        <ele>183</ele>
        <time>2021-05-19T14:49:25.000+02:00</time>
      </trkpt>
      <trkpt lat="48.75308" lon="1.99286">
        <ele>185.3</ele>
        <time>2021-05-19T14:49:35.000+02:00</time>
      </trkpt>
      <trkpt lat="48.753" lon="1.99296">
        <ele>186.1</ele>
        <time>2021-05-19T14:49:45.000+02:00</time>
      </trkpt>
      <trkpt lat="48.75292" lon="1.99302">
        <ele>187.1</ele>
        <time>2021-05-19T14:49:55.000+02:00</time>
      </trkpt>
      <trkpt lat="48.75287" lon="1.99316">
        <ele>187.1</ele>
        <time>2021-05-19T14:50:05.000+02:00</time>
      </trkpt>
      <trkpt lat="48.75283" lon="1.99332">
        <ele>187.7</ele>
        <time>2021-05-19T14:50:15.000+02:00</time>
      </trkpt>
      <trkpt lat="48.75272" lon="1.99342">
        <ele>186.7</ele>
        <time>2021-05-19T14:50:25.000+02:00</time>
      </trkpt>
      <trkpt lat="48.75263" lon="1.99354">
        <ele>184.5</ele>
        <time>2021-05-19T14:50:35.000+02:00</time>
      </trkpt>
      <trkpt lat="48.75251" lon="1.99369">
        <ele>183.4</ele>
        <time>2021-05-19T14:50:45.000+02:00</time>
      </trkpt>
      <trkpt lat="48.7524" lon="1.99384">
        <ele>182.2</ele>
        <time>2021-05-19T14:50:55.000+02:00</time>
      </trkpt>
      <trkpt lat="48.75231" lon="1.99395">
        <ele>182.4</ele>
        <time>2021-05-19T14:51:05.000+02:00</time>
      </trkpt>
      <trkpt lat="48.75222" lon="1.99409">
        <ele>182.6</ele>
        <time>2021-05-19T14:51:15.000+02:00</time>
      </trkpt>
      <trkpt lat="48.75215" lon="1.99423">
        <ele>183.7</ele>
        <time>2021-05-19T14:51:30.000+02:00</time>
      </trkpt>
      <trkpt lat="48.75206" lon="1.99435">
        <ele>181.8</ele>
        <time>2021-05-19T14:51:40.000+02:00</time>
      </trkpt>
      <trkpt lat="48.75197" lon="1.99449">
        <ele>180.3</ele>
        <time>2021-05-19T14:51:50.000+02:00</time>
      </trkpt>
      <trkpt lat="48.75189" lon="1.99461">
        <ele>180.1</ele>
        <time>2021-05-19T14:52:00.000+02:00</time>
      </trkpt>
      <trkpt lat="48.75181" lon="1.99473">
        <ele>179.6</ele>
        <time>2021-05-19T14:52:10.000+02:00</time>
      </trkpt>
      <trkpt lat="48.75172" lon="1.99484">
        <ele>181.4</ele>
        <time>2021-05-19T14:52:20.000+02:00</time>
      </trkpt>
      <trkpt lat="48.75162" lon="1.99492">
        <ele>181.1</ele>
        <time>2021-05-19T14:52:30.000+02:00</time>
      </trkpt>
      <trkpt lat="48.75152" lon="1.99502">
        <ele>180.5</ele>
        <time>2021-05-19T14:52:40.000+02:00</time>
      </trkpt>
      <trkpt lat="48.75143" lon="1.99514">
        <ele>180.9</ele>
        <time>2021-05-19T14:52:50.000+02:00</time>
      </trkpt>
      <trkpt lat="48.75135" lon="1.99529">
        <ele>180.5</ele>
        <time>2021-05-19T14:53:00.000+02:00</time>
      </trkpt>
      <trkpt lat="48.75131" lon="1.99541">
        <ele>180.7</ele>
        <time>2021-05-19T14:53:10.000+02:00</time>
      </trkpt>
      <trkpt lat="48.75122" lon="1.99546">
        <ele>181.4</ele>
        <time>2021-05-19T14:53:20.000+02:00</time>
      </trkpt>
      <trkpt lat="48.75115" lon="1.99543">
        <ele>181</ele>
        <time>2021-05-19T14:53:45.000+02:00</time>
      </trkpt>
      <trkpt lat="48.75117" lon="1.99547">
        <ele>173.7</ele>
        <time>2021-05-19T14:54:00.000+02:00</time>
      </trkpt>
      <trkpt lat="48.75111" lon="1.99558">
        <ele>168.8</ele>
        <time>2021-05-19T14:54:30.000+02:00</time>
      </trkpt>
      <trkpt lat="48.75117" lon="1.99558">
        <ele>163.6</ele>
        <time>2021-05-19T14:54:55.000+02:00</time>
      </trkpt>
      <trkpt lat="48.75114" lon="1.99568">
        <ele>178.3</ele>
        <time>2021-05-19T14:56:05.000+02:00</time>
      </trkpt>
      <trkpt lat="48.75106" lon="1.99577">
        <ele>177.4</ele>
        <time>2021-05-19T14:56:15.000+02:00</time>
      </trkpt>
      <trkpt lat="48.75108" lon="1.99584">
        <ele>174.7</ele>
        <time>2021-05-19T14:56:30.000+02:00</time>
      </trkpt>
      <trkpt lat="48.75116" lon="1.99576">
        <ele>172</ele>
        <time>2021-05-19T14:56:46.000+02:00</time>
      </trkpt>
      <trkpt lat="48.75112" lon="1.99589">
        <ele>176.7</ele>
        <time>2021-05-19T14:57:00.000+02:00</time>
      </trkpt>
      <trkpt lat="48.75108" lon="1.99608">
        <ele>178.9</ele>
        <time>2021-05-19T14:57:15.000+02:00</time>
      </trkpt>
      <trkpt lat="48.75104" lon="1.99623">
        <ele>178.9</ele>
        <time>2021-05-19T14:57:25.000+02:00</time>
      </trkpt>
      <trkpt lat="48.751" lon="1.9964">
        <ele>178.4</ele>
        <time>2021-05-19T14:57:40.000+02:00</time>
      </trkpt>
      <trkpt lat="48.75095" lon="1.9966">
        <ele>179.7</ele>
        <time>2021-05-19T14:57:55.000+02:00</time>
      </trkpt>
      <trkpt lat="48.75091" lon="1.99676">
        <ele>179.9</ele>
        <time>2021-05-19T14:58:05.000+02:00</time>
      </trkpt>
      <trkpt lat="48.7509" lon="1.99699">
        <ele>179.3</ele>
        <time>2021-05-19T14:58:15.000+02:00</time>
      </trkpt>
      <trkpt lat="48.75085" lon="1.99714">
        <ele>179.7</ele>
        <time>2021-05-19T14:58:25.000+02:00</time>
      </trkpt>
      <trkpt lat="48.75081" lon="1.99727">
        <ele>182.6</ele>
        <time>2021-05-19T14:58:35.000+02:00</time>
      </trkpt>
      <trkpt lat="48.75077" lon="1.9974">
        <ele>183.9</ele>
        <time>2021-05-19T14:58:45.000+02:00</time>
      </trkpt>
      <trkpt lat="48.75075" lon="1.99758">
        <ele>185</ele>
        <time>2021-05-19T14:58:55.000+02:00</time>
      </trkpt>
      <trkpt lat="48.75073" lon="1.99776">
        <ele>184.9</ele>
        <time>2021-05-19T14:59:05.000+02:00</time>
      </trkpt>
      <trkpt lat="48.75071" lon="1.99796">
        <ele>184.2</ele>
        <time>2021-05-19T14:59:15.000+02:00</time>
      </trkpt>
      <trkpt lat="48.7507" lon="1.99818">
        <ele>184.4</ele>
        <time>2021-05-19T14:59:25.000+02:00</time>
      </trkpt>
      <trkpt lat="48.75068" lon="1.99836">
        <ele>184.8</ele>
        <time>2021-05-19T14:59:35.000+02:00</time>
      </trkpt>
      <trkpt lat="48.75071" lon="1.9985">
        <ele>183.4</ele>
        <time>2021-05-19T14:59:50.000+02:00</time>
      </trkpt>
      <trkpt lat="48.75067" lon="1.99864">
        <ele>183.5</ele>
        <time>2021-05-19T15:00:00.000+02:00</time>
      </trkpt>
      <trkpt lat="48.75065" lon="1.99879">
        <ele>182</ele>
        <time>2021-05-19T15:00:10.000+02:00</time>
      </trkpt>
      <trkpt lat="48.75062" lon="1.99894">
        <ele>181.9</ele>
        <time>2021-05-19T15:00:20.000+02:00</time>
      </trkpt>
      <trkpt lat="48.75057" lon="1.99907">
        <ele>182</ele>
        <time>2021-05-19T15:00:30.000+02:00</time>
      </trkpt>
      <trkpt lat="48.75053" lon="1.99923">
        <ele>184.1</ele>
        <time>2021-05-19T15:00:40.000+02:00</time>
      </trkpt>
      <trkpt lat="48.75051" lon="1.99943">
        <ele>185.5</ele>
        <time>2021-05-19T15:00:50.000+02:00</time>
      </trkpt>
      <trkpt lat="48.7505" lon="1.99965">
        <ele>186.5</ele>
        <time>2021-05-19T15:01:00.000+02:00</time>
      </trkpt>
      <trkpt lat="48.75046" lon="1.99984">
        <ele>186</ele>
        <time>2021-05-19T15:01:10.000+02:00</time>
      </trkpt>
      <trkpt lat="48.75042" lon="2">
        <ele>185</ele>
        <time>2021-05-19T15:01:20.000+02:00</time>
      </trkpt>
      <trkpt lat="48.75039" lon="2.0002">
        <ele>182.9</ele>
        <time>2021-05-19T15:01:30.000+02:00</time>
      </trkpt>
      <trkpt lat="48.75035" lon="2.00035">
        <ele>182.8</ele>
        <time>2021-05-19T15:01:40.000+02:00</time>
      </trkpt>
      <trkpt lat="48.75037" lon="2.0006">
        <ele>181.4</ele>
        <time>2021-05-19T15:01:50.000+02:00</time>
      </trkpt>
      <trkpt lat="48.75034" lon="2.00075">
        <ele>180.4</ele>
        <time>2021-05-19T15:02:00.000+02:00</time>
      </trkpt>
      <trkpt lat="48.75029" lon="2.0009">
        <ele>180.9</ele>
        <time>2021-05-19T15:02:10.000+02:00</time>
      </trkpt>
      <trkpt lat="48.75027" lon="2.00108">
        <ele>182.1</ele>
        <time>2021-05-19T15:02:20.000+02:00</time>
      </trkpt>
      <trkpt lat="48.75023" lon="2.00125">
        <ele>182.4</ele>
        <time>2021-05-19T15:02:30.000+02:00</time>
      </trkpt>
      <trkpt lat="48.7502" lon="2.00142">
        <ele>182.3</ele>
        <time>2021-05-19T15:02:40.000+02:00</time>
      </trkpt>
      <trkpt lat="48.75017" lon="2.00158">
        <ele>182.6</ele>
        <time>2021-05-19T15:02:50.000+02:00</time>
      </trkpt>
      <trkpt lat="48.75016" lon="2.00176">
        <ele>181.7</ele>
        <time>2021-05-19T15:03:00.000+02:00</time>
      </trkpt>
      <trkpt lat="48.75016" lon="2.0019">
        <ele>180.3</ele>
        <time>2021-05-19T15:03:05.000+02:00</time>
      </trkpt>
      <trkpt lat="48.75012" lon="2.00208">
        <ele>180.2</ele>
        <time>2021-05-19T15:03:15.000+02:00</time>
      </trkpt>
      <trkpt lat="48.75006" lon="2.00221">
        <ele>178.8</ele>
        <time>2021-05-19T15:03:25.000+02:00</time>
      </trkpt>
      <trkpt lat="48.75003" lon="2.00235">
        <ele>177.3</ele>
        <time>2021-05-19T15:03:35.000+02:00</time>
      </trkpt>
      <trkpt lat="48.75" lon="2.00253">
        <ele>176.4</ele>
        <time>2021-05-19T15:03:45.000+02:00</time>
      </trkpt>
      <trkpt lat="48.74998" lon="2.00274">
        <ele>176.8</ele>
        <time>2021-05-19T15:03:55.000+02:00</time>
      </trkpt>
      <trkpt lat="48.74997" lon="2.00295">
        <ele>175.8</ele>
        <time>2021-05-19T15:04:05.000+02:00</time>
      </trkpt>
      <trkpt lat="48.74995" lon="2.00316">
        <ele>174.1</ele>
        <time>2021-05-19T15:04:15.000+02:00</time>
      </trkpt>
      <trkpt lat="48.7499" lon="2.00333">
        <ele>174.7</ele>
        <time>2021-05-19T15:04:25.000+02:00</time>
      </trkpt>
      <trkpt lat="48.74987" lon="2.00351">
        <ele>173.5</ele>
        <time>2021-05-19T15:04:35.000+02:00</time>
      </trkpt>
      <trkpt lat="48.74986" lon="2.00371">
        <ele>173.1</ele>
        <time>2021-05-19T15:04:45.000+02:00</time>
      </trkpt>
      <trkpt lat="48.74983" lon="2.0039">
        <ele>171.3</ele>
        <time>2021-05-19T15:04:55.000+02:00</time>
      </trkpt>
      <trkpt lat="48.7498" lon="2.00405">
        <ele>171</ele>
        <time>2021-05-19T15:05:05.000+02:00</time>
      </trkpt>
      <trkpt lat="48.74979" lon="2.00421">
        <ele>170.1</ele>
        <time>2021-05-19T15:05:15.000+02:00</time>
      </trkpt>
      <trkpt lat="48.74979" lon="2.00437">
        <ele>169.7</ele>
        <time>2021-05-19T15:05:35.000+02:00</time>
      </trkpt>
      <trkpt lat="48.74975" lon="2.00452">
        <ele>168.9</ele>
        <time>2021-05-19T15:05:45.000+02:00</time>
      </trkpt>
      <trkpt lat="48.74976" lon="2.00466">
        <ele>168</ele>
        <time>2021-05-19T15:06:05.000+02:00</time>
      </trkpt>
      <trkpt lat="48.74972" lon="2.00488">
        <ele>168.1</ele>
        <time>2021-05-19T15:06:20.000+02:00</time>
      </trkpt>
      <trkpt lat="48.74968" lon="2.00509">
        <ele>169.3</ele>
        <time>2021-05-19T15:06:30.000+02:00</time>
      </trkpt>
      <trkpt lat="48.74967" lon="2.00528">
        <ele>171.6</ele>
        <time>2021-05-19T15:06:40.000+02:00</time>
      </trkpt>
      <trkpt lat="48.74964" lon="2.00545">
        <ele>173.6</ele>
        <time>2021-05-19T15:06:50.000+02:00</time>
      </trkpt>
      <trkpt lat="48.74962" lon="2.00562">
        <ele>173.5</ele>
        <time>2021-05-19T15:07:00.000+02:00</time>
      </trkpt>
      <trkpt lat="48.74961" lon="2.00581">
        <ele>173.7</ele>
        <time>2021-05-19T15:07:10.000+02:00</time>
      </trkpt>
      <trkpt lat="48.74956" lon="2.00597">
        <ele>178.9</ele>
        <time>2021-05-19T15:07:25.000+02:00</time>
      </trkpt>
      <trkpt lat="48.74952" lon="2.0061">
        <ele>180</ele>
        <time>2021-05-19T15:07:35.000+02:00</time>
      </trkpt>
      <trkpt lat="48.74948" lon="2.00624">
        <ele>182.9</ele>
        <time>2021-05-19T15:07:45.000+02:00</time>
      </trkpt>
      <trkpt lat="48.74945" lon="2.00648">
        <ele>183</ele>
        <time>2021-05-19T15:07:55.000+02:00</time>
      </trkpt>
      <trkpt lat="48.74947" lon="2.00663">
        <ele>176.3</ele>
        <time>2021-05-19T15:08:55.000+02:00</time>
      </trkpt>
      <trkpt lat="48.74955" lon="2.00668">
        <ele>178.7</ele>
        <time>2021-05-19T15:09:35.000+02:00</time>
      </trkpt>
      <trkpt lat="48.74958" lon="2.00671">
        <ele>176.4</ele>
        <time>2021-05-19T15:10:20.000+02:00</time>
      </trkpt>
      <trkpt lat="48.74968" lon="2.00675">
        <ele>175.1</ele>
        <time>2021-05-19T15:10:35.000+02:00</time>
      </trkpt>
      <trkpt lat="48.74978" lon="2.00672">
        <ele>176.5</ele>
        <time>2021-05-19T15:10:50.000+02:00</time>
      </trkpt>
      <trkpt lat="48.74988" lon="2.00667">
        <ele>180.5</ele>
        <time>2021-05-19T15:11:05.000+02:00</time>
      </trkpt>
      <trkpt lat="48.74997" lon="2.0066">
        <ele>180.4</ele>
        <time>2021-05-19T15:11:20.000+02:00</time>
      </trkpt>
      <trkpt lat="48.75012" lon="2.00651">
        <ele>180.6</ele>
        <time>2021-05-19T15:11:30.000+02:00</time>
      </trkpt>
      <trkpt lat="48.75026" lon="2.0064">
        <ele>180.2</ele>
        <time>2021-05-19T15:11:40.000+02:00</time>
      </trkpt>
      <trkpt lat="48.7504" lon="2.00633">
        <ele>181</ele>
        <time>2021-05-19T15:11:50.000+02:00</time>
      </trkpt>
      <trkpt lat="48.75052" lon="2.00628">
        <ele>180.8</ele>
        <time>2021-05-19T15:12:00.000+02:00</time>
      </trkpt>
      <trkpt lat="48.75061" lon="2.00619">
        <ele>182</ele>
        <time>2021-05-19T15:12:10.000+02:00</time>
      </trkpt>
      <trkpt lat="48.7507" lon="2.00611">
        <ele>182.3</ele>
        <time>2021-05-19T15:12:20.000+02:00</time>
      </trkpt>
      <trkpt lat="48.75083" lon="2.006">
        <ele>179.8</ele>
        <time>2021-05-19T15:12:30.000+02:00</time>
      </trkpt>
      <trkpt lat="48.75096" lon="2.00593">
        <ele>178.8</ele>
        <time>2021-05-19T15:12:40.000+02:00</time>
      </trkpt>
      <trkpt lat="48.75107" lon="2.00584">
        <ele>178.3</ele>
        <time>2021-05-19T15:12:50.000+02:00</time>
      </trkpt>
      <trkpt lat="48.75117" lon="2.00574">
        <ele>178.7</ele>
        <time>2021-05-19T15:13:00.000+02:00</time>
      </trkpt>
      <trkpt lat="48.75128" lon="2.0057">
        <ele>178.3</ele>
        <time>2021-05-19T15:13:10.000+02:00</time>
      </trkpt>
      <trkpt lat="48.75138" lon="2.00562">
        <ele>179.9</ele>
        <time>2021-05-19T15:13:20.000+02:00</time>
      </trkpt>
      <trkpt lat="48.75147" lon="2.00557">
        <ele>183</ele>
        <time>2021-05-19T15:13:30.000+02:00</time>
      </trkpt>
      <trkpt lat="48.7516" lon="2.00548">
        <ele>182.4</ele>
        <time>2021-05-19T15:13:40.000+02:00</time>
      </trkpt>
      <trkpt lat="48.75169" lon="2.00539">
        <ele>180.2</ele>
        <time>2021-05-19T15:13:50.000+02:00</time>
      </trkpt>
      <trkpt lat="48.75179" lon="2.00528">
        <ele>180.4</ele>
        <time>2021-05-19T15:14:00.000+02:00</time>
      </trkpt>
      <trkpt lat="48.75191" lon="2.00516">
        <ele>178.7</ele>
        <time>2021-05-19T15:14:15.000+02:00</time>
      </trkpt>
      <trkpt lat="48.75202" lon="2.00507">
        <ele>179.1</ele>
        <time>2021-05-19T15:14:25.000+02:00</time>
      </trkpt>
      <trkpt lat="48.75212" lon="2.005">
        <ele>177.6</ele>
        <time>2021-05-19T15:14:35.000+02:00</time>
      </trkpt>
      <trkpt lat="48.75222" lon="2.00502">
        <ele>174.9</ele>
        <time>2021-05-19T15:14:40.000+02:00</time>
      </trkpt>
      <trkpt lat="48.75233" lon="2.00495">
        <ele>173.6</ele>
        <time>2021-05-19T15:14:50.000+02:00</time>
      </trkpt>
      <trkpt lat="48.7524" lon="2.00487">
        <ele>170.4</ele>
        <time>2021-05-19T15:15:05.000+02:00</time>
      </trkpt>
      <trkpt lat="48.75249" lon="2.0049">
        <ele>168.1</ele>
        <time>2021-05-19T15:15:30.000+02:00</time>
      </trkpt>
      <trkpt lat="48.75242" lon="2.00503">
        <ele>169.5</ele>
        <time>2021-05-19T15:15:50.000+02:00</time>
      </trkpt>
      <trkpt lat="48.75234" lon="2.00511">
        <ele>168.1</ele>
        <time>2021-05-19T15:16:00.000+02:00</time>
      </trkpt>
      <trkpt lat="48.75226" lon="2.00524">
        <ele>169.3</ele>
        <time>2021-05-19T15:16:15.000+02:00</time>
      </trkpt>
      <trkpt lat="48.75217" lon="2.00536">
        <ele>169.8</ele>
        <time>2021-05-19T15:16:25.000+02:00</time>
      </trkpt>
      <trkpt lat="48.75205" lon="2.00547">
        <ele>168.7</ele>
        <time>2021-05-19T15:16:35.000+02:00</time>
      </trkpt>
      <trkpt lat="48.752" lon="2.00563">
        <ele>170.4</ele>
        <time>2021-05-19T15:16:55.000+02:00</time>
      </trkpt>
      <trkpt lat="48.75205" lon="2.00578">
        <ele>167.4</ele>
        <time>2021-05-19T15:17:10.000+02:00</time>
      </trkpt>
      <trkpt lat="48.75209" lon="2.00595">
        <ele>166.4</ele>
        <time>2021-05-19T15:17:20.000+02:00</time>
      </trkpt>
      <trkpt lat="48.75208" lon="2.00613">
        <ele>166.6</ele>
        <time>2021-05-19T15:17:30.000+02:00</time>
      </trkpt>
      <trkpt lat="48.75213" lon="2.00623">
        <ele>165.7</ele>
        <time>2021-05-19T15:17:45.000+02:00</time>
      </trkpt>
      <trkpt lat="48.7522" lon="2.0064">
        <ele>164.2</ele>
        <time>2021-05-19T15:18:25.000+02:00</time>
      </trkpt>
      <trkpt lat="48.7523" lon="2.00645">
        <ele>164.5</ele>
        <time>2021-05-19T15:18:45.000+02:00</time>
      </trkpt>
      <trkpt lat="48.75233" lon="2.00662">
        <ele>164.5</ele>
        <time>2021-05-19T15:19:00.000+02:00</time>
      </trkpt>
      <trkpt lat="48.75239" lon="2.00669">
        <ele>167.2</ele>
        <time>2021-05-19T15:19:55.000+02:00</time>
      </trkpt>
      <trkpt lat="48.75245" lon="2.00683">
        <ele>167</ele>
        <time>2021-05-19T15:20:10.000+02:00</time>
      </trkpt>
      <trkpt lat="48.7525" lon="2.00694">
        <ele>167.4</ele>
        <time>2021-05-19T15:20:30.000+02:00</time>
      </trkpt>
      <trkpt lat="48.75254" lon="2.00708">
        <ele>168.2</ele>
        <time>2021-05-19T15:20:45.000+02:00</time>
      </trkpt>
      <trkpt lat="48.75259" lon="2.00718">
        <ele>165.6</ele>
        <time>2021-05-19T15:21:25.000+02:00</time>
      </trkpt>
      <trkpt lat="48.75264" lon="2.00728">
        <ele>165.3</ele>
        <time>2021-05-19T15:22:05.000+02:00</time>
      </trkpt>
      <trkpt lat="48.7527" lon="2.00737">
        <ele>166.2</ele>
        <time>2021-05-19T15:22:45.000+02:00</time>
      </trkpt>
      <trkpt lat="48.75276" lon="2.00749">
        <ele>166.2</ele>
        <time>2021-05-19T15:23:10.000+02:00</time>
      </trkpt>
      <trkpt lat="48.75281" lon="2.00761">
        <ele>168.5</ele>
        <time>2021-05-19T15:23:25.000+02:00</time>
      </trkpt>
      <trkpt lat="48.75289" lon="2.00773">
        <ele>168.4</ele>
        <time>2021-05-19T15:23:55.000+02:00</time>
      </trkpt>
      <trkpt lat="48.75296" lon="2.00783">
        <ele>167.6</ele>
        <time>2021-05-19T15:24:15.000+02:00</time>
      </trkpt>
      <trkpt lat="48.75302" lon="2.00797">
        <ele>168.7</ele>
        <time>2021-05-19T15:24:30.000+02:00</time>
      </trkpt>
      <trkpt lat="48.75309" lon="2.00804">
        <ele>168.2</ele>
        <time>2021-05-19T15:25:20.000+02:00</time>
      </trkpt>
      <trkpt lat="48.75317" lon="2.00815">
        <ele>168.7</ele>
        <time>2021-05-19T15:25:45.000+02:00</time>
      </trkpt>
      <trkpt lat="48.75323" lon="2.00831">
        <ele>167</ele>
        <time>2021-05-19T15:26:00.000+02:00</time>
      </trkpt>
      <trkpt lat="48.75329" lon="2.00842">
        <ele>165.7</ele>
        <time>2021-05-19T15:26:15.000+02:00</time>
      </trkpt>
      <trkpt lat="48.75339" lon="2.00852">
        <ele>163.9</ele>
        <time>2021-05-19T15:26:30.000+02:00</time>
      </trkpt>
      <trkpt lat="48.7535" lon="2.00867">
        <ele>164.9</ele>
        <time>2021-05-19T15:26:45.000+02:00</time>
      </trkpt>
      <trkpt lat="48.75356" lon="2.00872">
        <ele>166.9</ele>
        <time>2021-05-19T15:27:30.000+02:00</time>
      </trkpt>
      <trkpt lat="48.75361" lon="2.00866">
        <ele>169.5</ele>
        <time>2021-05-19T15:28:15.000+02:00</time>
      </trkpt>
      <trkpt lat="48.75367" lon="2.00856">
        <ele>170.5</ele>
        <time>2021-05-19T15:28:30.000+02:00</time>
      </trkpt>
      <trkpt lat="48.75372" lon="2.00843">
        <ele>168</ele>
        <time>2021-05-19T15:28:45.000+02:00</time>
      </trkpt>
      <trkpt lat="48.75379" lon="2.00832">
        <ele>169.5</ele>
        <time>2021-05-19T15:28:55.000+02:00</time>
      </trkpt>
      <trkpt lat="48.75387" lon="2.00817">
        <ele>166.9</ele>
        <time>2021-05-19T15:29:10.000+02:00</time>
      </trkpt>
      <trkpt lat="48.75397" lon="2.00805">
        <ele>165.6</ele>
        <time>2021-05-19T15:29:30.000+02:00</time>
      </trkpt>
      <trkpt lat="48.75404" lon="2.00794">
        <ele>167.5</ele>
        <time>2021-05-19T15:29:40.000+02:00</time>
      </trkpt>
      <trkpt lat="48.75412" lon="2.00787">
        <ele>169.4</ele>
        <time>2021-05-19T15:29:50.000+02:00</time>
      </trkpt>
      <trkpt lat="48.75418" lon="2.00776">
        <ele>169.2</ele>
        <time>2021-05-19T15:30:15.000+02:00</time>
      </trkpt>
      <trkpt lat="48.75425" lon="2.00768">
        <ele>172.8</ele>
        <time>2021-05-19T15:30:30.000+02:00</time>
      </trkpt>
      <trkpt lat="48.75433" lon="2.00762">
        <ele>174.6</ele>
        <time>2021-05-19T15:30:45.000+02:00</time>
      </trkpt>
      <trkpt lat="48.75444" lon="2.00759">
        <ele>173.4</ele>
        <time>2021-05-19T15:31:05.000+02:00</time>
      </trkpt>
      <trkpt lat="48.75451" lon="2.00748">
        <ele>172.6</ele>
        <time>2021-05-19T15:31:20.000+02:00</time>
      </trkpt>
      <trkpt lat="48.75459" lon="2.00734">
        <ele>174.8</ele>
        <time>2021-05-19T15:31:35.000+02:00</time>
      </trkpt>
      <trkpt lat="48.75467" lon="2.00714">
        <ele>176.3</ele>
        <time>2021-05-19T15:31:50.000+02:00</time>
      </trkpt>
      <trkpt lat="48.75471" lon="2.007">
        <ele>175.7</ele>
        <time>2021-05-19T15:32:00.000+02:00</time>
      </trkpt>
      <trkpt lat="48.75476" lon="2.00683">
        <ele>177.1</ele>
        <time>2021-05-19T15:32:15.000+02:00</time>
      </trkpt>
      <trkpt lat="48.75482" lon="2.00668">
        <ele>173.7</ele>
        <time>2021-05-19T15:32:30.000+02:00</time>
      </trkpt>
      <trkpt lat="48.75491" lon="2.00662">
        <ele>171.7</ele>
        <time>2021-05-19T15:32:40.000+02:00</time>
      </trkpt>
      <trkpt lat="48.755" lon="2.00664">
        <ele>172.3</ele>
        <time>2021-05-19T15:32:50.000+02:00</time>
      </trkpt>
      <trkpt lat="48.75505" lon="2.00653">
        <ele>167.2</ele>
        <time>2021-05-19T15:33:25.000+02:00</time>
      </trkpt>
      <trkpt lat="48.75506" lon="2.00655">
        <ele>165.3</ele>
        <time>2021-05-19T15:33:55.000+02:00</time>
      </trkpt>
      <trkpt lat="48.75513" lon="2.00659">
        <ele>161.8</ele>
        <time>2021-05-19T15:34:20.000+02:00</time>
      </trkpt>
      <trkpt lat="48.7552" lon="2.00674">
        <ele>166.8</ele>
        <time>2021-05-19T15:34:45.000+02:00</time>
      </trkpt>
      <trkpt lat="48.75525" lon="2.00668">
        <ele>167.2</ele>
        <time>2021-05-19T15:35:20.000+02:00</time>
      </trkpt>
      <trkpt lat="48.75529" lon="2.00676">
        <ele>167.5</ele>
        <time>2021-05-19T15:35:50.000+02:00</time>
      </trkpt>
      <trkpt lat="48.75532" lon="2.00689">
        <ele>168.3</ele>
        <time>2021-05-19T15:36:10.000+02:00</time>
      </trkpt>
      <trkpt lat="48.75538" lon="2.00704">
        <ele>168.1</ele>
        <time>2021-05-19T15:36:20.000+02:00</time>
      </trkpt>
      <trkpt lat="48.75542" lon="2.00717">
        <ele>169.8</ele>
        <time>2021-05-19T15:36:35.000+02:00</time>
      </trkpt>
      <trkpt lat="48.7555" lon="2.00733">
        <ele>165.1</ele>
        <time>2021-05-19T15:36:45.000+02:00</time>
      </trkpt>
      <trkpt lat="48.75558" lon="2.00747">
        <ele>162.2</ele>
        <time>2021-05-19T15:36:55.000+02:00</time>
      </trkpt>
      <trkpt lat="48.75562" lon="2.00762">
        <ele>162.9</ele>
        <time>2021-05-19T15:37:05.000+02:00</time>
      </trkpt>
      <trkpt lat="48.75564" lon="2.00777">
        <ele>163.8</ele>
        <time>2021-05-19T15:37:20.000+02:00</time>
      </trkpt>
      <trkpt lat="48.75571" lon="2.00793">
        <ele>165</ele>
        <time>2021-05-19T15:37:30.000+02:00</time>
      </trkpt>
      <trkpt lat="48.75576" lon="2.00808">
        <ele>166</ele>
        <time>2021-05-19T15:37:40.000+02:00</time>
      </trkpt>
      <trkpt lat="48.75579" lon="2.00823">
        <ele>166.9</ele>
        <time>2021-05-19T15:37:50.000+02:00</time>
      </trkpt>
      <trkpt lat="48.75586" lon="2.0084">
        <ele>167.3</ele>
        <time>2021-05-19T15:38:05.000+02:00</time>
      </trkpt>
      <trkpt lat="48.7559" lon="2.00852">
        <ele>167.9</ele>
        <time>2021-05-19T15:38:20.000+02:00</time>
      </trkpt>
      <trkpt lat="48.75594" lon="2.00865">
        <ele>168.5</ele>
        <time>2021-05-19T15:38:30.000+02:00</time>
      </trkpt>
      <trkpt lat="48.75596" lon="2.00879">
        <ele>167.7</ele>
        <time>2021-05-19T15:38:35.000+02:00</time>
      </trkpt>
      <trkpt lat="48.75601" lon="2.00893">
        <ele>168.3</ele>
        <time>2021-05-19T15:38:45.000+02:00</time>
      </trkpt>
      <trkpt lat="48.75609" lon="2.00908">
        <ele>165.1</ele>
        <time>2021-05-19T15:38:55.000+02:00</time>
      </trkpt>
      <trkpt lat="48.75616" lon="2.00928">
        <ele>165.7</ele>
        <time>2021-05-19T15:39:10.000+02:00</time>
      </trkpt>
      <trkpt lat="48.75622" lon="2.00942">
        <ele>165.6</ele>
        <time>2021-05-19T15:39:25.000+02:00</time>
      </trkpt>
      <trkpt lat="48.75629" lon="2.00962">
        <ele>164.7</ele>
        <time>2021-05-19T15:39:35.000+02:00</time>
      </trkpt>
      <trkpt lat="48.75635" lon="2.00981">
        <ele>166.6</ele>
        <time>2021-05-19T15:39:45.000+02:00</time>
      </trkpt>
      <trkpt lat="48.75641" lon="2.00996">
        <ele>167.8</ele>
        <time>2021-05-19T15:39:55.000+02:00</time>
      </trkpt>
      <trkpt lat="48.75648" lon="2.01014">
        <ele>168.4</ele>
        <time>2021-05-19T15:40:05.000+02:00</time>
      </trkpt>
      <trkpt lat="48.75653" lon="2.01027">
        <ele>168.8</ele>
        <time>2021-05-19T15:40:15.000+02:00</time>
      </trkpt>
      <trkpt lat="48.75664" lon="2.01035">
        <ele>170.9</ele>
        <time>2021-05-19T15:40:40.000+02:00</time>
      </trkpt>
      <trkpt lat="48.75668" lon="2.01048">
        <ele>170.3</ele>
        <time>2021-05-19T15:40:50.000+02:00</time>
      </trkpt>
      <trkpt lat="48.7567" lon="2.01063">
        <ele>169.6</ele>
        <time>2021-05-19T15:41:00.000+02:00</time>
      </trkpt>
      <trkpt lat="48.75672" lon="2.01078">
        <ele>170.7</ele>
        <time>2021-05-19T15:41:10.000+02:00</time>
      </trkpt>
      <trkpt lat="48.75677" lon="2.01091">
        <ele>172.3</ele>
        <time>2021-05-19T15:41:20.000+02:00</time>
      </trkpt>
      <trkpt lat="48.75681" lon="2.01104">
        <ele>172.9</ele>
        <time>2021-05-19T15:41:30.000+02:00</time>
      </trkpt>
      <trkpt lat="48.7569" lon="2.01127">
        <ele>172.6</ele>
        <time>2021-05-19T15:41:45.000+02:00</time>
      </trkpt>
      <trkpt lat="48.75696" lon="2.01147">
        <ele>170.5</ele>
        <time>2021-05-19T15:41:55.000+02:00</time>
      </trkpt>
      <trkpt lat="48.75701" lon="2.01159">
        <ele>168.8</ele>
        <time>2021-05-19T15:42:05.000+02:00</time>
      </trkpt>
      <trkpt lat="48.75706" lon="2.01174">
        <ele>170.2</ele>
        <time>2021-05-19T15:42:15.000+02:00</time>
      </trkpt>
      <trkpt lat="48.75712" lon="2.01192">
        <ele>171.4</ele>
        <time>2021-05-19T15:42:25.000+02:00</time>
      </trkpt>
      <trkpt lat="48.75716" lon="2.01207">
        <ele>171.9</ele>
        <time>2021-05-19T15:42:40.000+02:00</time>
      </trkpt>
      <trkpt lat="48.75722" lon="2.01223">
        <ele>172.2</ele>
        <time>2021-05-19T15:42:50.000+02:00</time>
      </trkpt>
      <trkpt lat="48.7573" lon="2.01245">
        <ele>171.8</ele>
        <time>2021-05-19T15:43:00.000+02:00</time>
      </trkpt>
      <trkpt lat="48.75738" lon="2.01262">
        <ele>172.1</ele>
        <time>2021-05-19T15:43:10.000+02:00</time>
      </trkpt>
      <trkpt lat="48.75745" lon="2.01281">
        <ele>171.4</ele>
        <time>2021-05-19T15:43:20.000+02:00</time>
      </trkpt>
      <trkpt lat="48.75751" lon="2.01296">
        <ele>172.6</ele>
        <time>2021-05-19T15:43:35.000+02:00</time>
      </trkpt>
      <trkpt lat="48.75757" lon="2.01314">
        <ele>173.5</ele>
        <time>2021-05-19T15:43:45.000+02:00</time>
      </trkpt>
      <trkpt lat="48.75762" lon="2.01329">
        <ele>174.1</ele>
        <time>2021-05-19T15:43:55.000+02:00</time>
      </trkpt>
      <trkpt lat="48.7577" lon="2.01345">
        <ele>173.9</ele>
        <time>2021-05-19T15:44:05.000+02:00</time>
      </trkpt>
      <trkpt lat="48.75777" lon="2.01362">
        <ele>173.1</ele>
        <time>2021-05-19T15:44:15.000+02:00</time>
      </trkpt>
      <trkpt lat="48.75782" lon="2.01378">
        <ele>172.9</ele>
        <time>2021-05-19T15:44:30.000+02:00</time>
      </trkpt>
      <trkpt lat="48.75791" lon="2.01396">
        <ele>174.1</ele>
        <time>2021-05-19T15:44:45.000+02:00</time>
      </trkpt>
      <trkpt lat="48.75798" lon="2.01413">
        <ele>173.7</ele>
        <time>2021-05-19T15:44:55.000+02:00</time>
      </trkpt>
      <trkpt lat="48.75804" lon="2.0143">
        <ele>173.1</ele>
        <time>2021-05-19T15:45:05.000+02:00</time>
      </trkpt>
      <trkpt lat="48.75809" lon="2.01445">
        <ele>174</ele>
        <time>2021-05-19T15:45:15.000+02:00</time>
      </trkpt>
      <trkpt lat="48.75815" lon="2.01464">
        <ele>173.8</ele>
        <time>2021-05-19T15:45:25.000+02:00</time>
      </trkpt>
      <trkpt lat="48.75823" lon="2.01486">
        <ele>168.7</ele>
        <time>2021-05-19T15:45:35.000+02:00</time>
      </trkpt>
      <trkpt lat="48.75829" lon="2.01499">
        <ele>163</ele>
        <time>2021-05-19T15:45:40.000+02:00</time>
      </trkpt>
      <trkpt lat="48.75833" lon="2.01511">
        <ele>163.3</ele>
        <time>2021-05-19T15:45:50.000+02:00</time>
      </trkpt>
      <trkpt lat="48.75837" lon="2.01525">
        <ele>165.2</ele>
        <time>2021-05-19T15:46:00.000+02:00</time>
      </trkpt>
      <trkpt lat="48.75841" lon="2.01539">
        <ele>166.8</ele>
        <time>2021-05-19T15:46:10.000+02:00</time>
      </trkpt>
      <trkpt lat="48.75848" lon="2.01559">
        <ele>167.1</ele>
        <time>2021-05-19T15:46:20.000+02:00</time>
      </trkpt>
      <trkpt lat="48.75854" lon="2.01572">
        <ele>168</ele>
        <time>2021-05-19T15:46:30.000+02:00</time>
      </trkpt>
      <trkpt lat="48.75858" lon="2.0159">
        <ele>167.8</ele>
        <time>2021-05-19T15:46:40.000+02:00</time>
      </trkpt>
      <trkpt lat="48.75865" lon="2.01606">
        <ele>167.4</ele>
        <time>2021-05-19T15:46:50.000+02:00</time>
      </trkpt>
      <trkpt lat="48.75871" lon="2.01622">
        <ele>167.2</ele>
        <time>2021-05-19T15:47:00.000+02:00</time>
      </trkpt>
      <trkpt lat="48.75877" lon="2.01638">
        <ele>167.6</ele>
        <time>2021-05-19T15:47:10.000+02:00</time>
      </trkpt>
      <trkpt lat="48.75882" lon="2.0165">
        <ele>168.7</ele>
        <time>2021-05-19T15:47:20.000+02:00</time>
      </trkpt>
      <trkpt lat="48.7589" lon="2.0167">
        <ele>169.3</ele>
        <time>2021-05-19T15:47:30.000+02:00</time>
      </trkpt>
      <trkpt lat="48.75897" lon="2.01687">
        <ele>168.4</ele>
        <time>2021-05-19T15:47:40.000+02:00</time>
      </trkpt>
      <trkpt lat="48.75899" lon="2.01704">
        <ele>170.5</ele>
        <time>2021-05-19T15:47:55.000+02:00</time>
      </trkpt>
      <trkpt lat="48.75904" lon="2.01715">
        <ele>171</ele>
        <time>2021-05-19T15:48:05.000+02:00</time>
      </trkpt>
      <trkpt lat="48.7591" lon="2.01733">
        <ele>169.3</ele>
        <time>2021-05-19T15:48:15.000+02:00</time>
      </trkpt>
      <trkpt lat="48.75917" lon="2.01755">
        <ele>167.5</ele>
        <time>2021-05-19T15:48:25.000+02:00</time>
      </trkpt>
      <trkpt lat="48.75922" lon="2.01768">
        <ele>167.2</ele>
        <time>2021-05-19T15:48:40.000+02:00</time>
      </trkpt>
      <trkpt lat="48.75925" lon="2.01781">
        <ele>165.9</ele>
        <time>2021-05-19T15:48:50.000+02:00</time>
      </trkpt>
      <trkpt lat="48.75931" lon="2.01794">
        <ele>164</ele>
        <time>2021-05-19T15:49:00.000+02:00</time>
      </trkpt>
      <trkpt lat="48.75937" lon="2.0181">
        <ele>161.9</ele>
        <time>2021-05-19T15:49:10.000+02:00</time>
      </trkpt>
      <trkpt lat="48.75946" lon="2.01829">
        <ele>160</ele>
        <time>2021-05-19T15:49:20.000+02:00</time>
      </trkpt>
      <trkpt lat="48.75952" lon="2.01843">
        <ele>158.9</ele>
        <time>2021-05-19T15:49:30.000+02:00</time>
      </trkpt>
      <trkpt lat="48.75957" lon="2.01861">
        <ele>157.9</ele>
        <time>2021-05-19T15:49:40.000+02:00</time>
      </trkpt>
      <trkpt lat="48.7596" lon="2.0187">
        <ele>160.1</ele>
        <time>2021-05-19T15:51:00.000+02:00</time>
      </trkpt>
      <trkpt lat="48.75965" lon="2.01882">
        <ele>160.6</ele>
        <time>2021-05-19T15:51:10.000+02:00</time>
      </trkpt>
      <trkpt lat="48.7597" lon="2.01895">
        <ele>161.1</ele>
        <time>2021-05-19T15:51:20.000+02:00</time>
      </trkpt>
      <trkpt lat="48.75975" lon="2.01907">
        <ele>160.9</ele>
        <time>2021-05-19T15:51:30.000+02:00</time>
      </trkpt>
      <trkpt lat="48.7598" lon="2.01922">
        <ele>160.8</ele>
        <time>2021-05-19T15:51:40.000+02:00</time>
      </trkpt>
      <trkpt lat="48.75986" lon="2.01935">
        <ele>161</ele>
        <time>2021-05-19T15:51:50.000+02:00</time>
      </trkpt>
      <trkpt lat="48.75992" lon="2.0195">
        <ele>162.2</ele>
        <time>2021-05-19T15:52:00.000+02:00</time>
      </trkpt>
      <trkpt lat="48.75997" lon="2.01966">
        <ele>161.2</ele>
        <time>2021-05-19T15:52:10.000+02:00</time>
      </trkpt>
      <trkpt lat="48.76004" lon="2.01984">
        <ele>161</ele>
        <time>2021-05-19T15:52:20.000+02:00</time>
      </trkpt>
      <trkpt lat="48.7601" lon="2.01999">
        <ele>161.6</ele>
        <time>2021-05-19T15:52:30.000+02:00</time>
      </trkpt>
      <trkpt lat="48.76015" lon="2.02012">
        <ele>162</ele>
        <time>2021-05-19T15:52:40.000+02:00</time>
      </trkpt>
      <trkpt lat="48.76022" lon="2.02029">
        <ele>161.1</ele>
        <time>2021-05-19T15:52:50.000+02:00</time>
      </trkpt>
      <trkpt lat="48.7603" lon="2.02047">
        <ele>160.5</ele>
        <time>2021-05-19T15:53:00.000+02:00</time>
      </trkpt>
      <trkpt lat="48.76032" lon="2.02061">
        <ele>162.3</ele>
        <time>2021-05-19T15:53:10.000+02:00</time>
      </trkpt>
      <trkpt lat="48.76033" lon="2.02075">
        <ele>162.7</ele>
        <time>2021-05-19T15:53:20.000+02:00</time>
      </trkpt>
      <trkpt lat="48.76038" lon="2.02086">
        <ele>159.2</ele>
        <time>2021-05-19T15:53:50.000+02:00</time>
      </trkpt>
      <trkpt lat="48.76051" lon="2.02091">
        <ele>158.6</ele>
        <time>2021-05-19T15:54:10.000+02:00</time>
      </trkpt>
      <trkpt lat="48.76061" lon="2.02093">
        <ele>159.7</ele>
        <time>2021-05-19T15:54:25.000+02:00</time>
      </trkpt>
      <trkpt lat="48.76071" lon="2.02091">
        <ele>161.2</ele>
        <time>2021-05-19T15:54:35.000+02:00</time>
      </trkpt>
      <trkpt lat="48.76081" lon="2.02089">
        <ele>162.3</ele>
        <time>2021-05-19T15:54:45.000+02:00</time>
      </trkpt>
      <trkpt lat="48.76095" lon="2.02085">
        <ele>164.3</ele>
        <time>2021-05-19T15:55:00.000+02:00</time>
      </trkpt>
      <trkpt lat="48.76107" lon="2.02081">
        <ele>164.6</ele>
        <time>2021-05-19T15:55:10.000+02:00</time>
      </trkpt>
      <trkpt lat="48.76117" lon="2.02082">
        <ele>165.5</ele>
        <time>2021-05-19T15:55:20.000+02:00</time>
      </trkpt>
      <trkpt lat="48.76127" lon="2.02084">
        <ele>166</ele>
        <time>2021-05-19T15:55:30.000+02:00</time>
      </trkpt>
      <trkpt lat="48.76139" lon="2.02085">
        <ele>166.5</ele>
        <time>2021-05-19T15:55:40.000+02:00</time>
      </trkpt>
      <trkpt lat="48.7615" lon="2.02088">
        <ele>167.3</ele>
        <time>2021-05-19T15:55:50.000+02:00</time>
      </trkpt>
      <trkpt lat="48.76161" lon="2.02095">
        <ele>169</ele>
        <time>2021-05-19T15:56:00.000+02:00</time>
      </trkpt>
      <trkpt lat="48.76176" lon="2.02108">
        <ele>169.6</ele>
        <time>2021-05-19T15:56:10.000+02:00</time>
      </trkpt>
      <trkpt lat="48.76185" lon="2.02113">
        <ele>171.5</ele>
        <time>2021-05-19T15:56:20.000+02:00</time>
      </trkpt>
      <trkpt lat="48.76196" lon="2.02122">
        <ele>174.2</ele>
        <time>2021-05-19T15:56:35.000+02:00</time>
      </trkpt>
      <trkpt lat="48.76205" lon="2.02135">
        <ele>176.2</ele>
        <time>2021-05-19T15:56:45.000+02:00</time>
      </trkpt>
      <trkpt lat="48.76216" lon="2.02144">
        <ele>176.2</ele>
        <time>2021-05-19T15:56:55.000+02:00</time>
      </trkpt>
      <trkpt lat="48.76228" lon="2.02153">
        <ele>175.8</ele>
        <time>2021-05-19T15:57:05.000+02:00</time>
      </trkpt>
      <trkpt lat="48.76237" lon="2.0216">
        <ele>178.5</ele>
        <time>2021-05-19T15:57:15.000+02:00</time>
      </trkpt>
      <trkpt lat="48.76245" lon="2.02161">
        <ele>182.8</ele>
        <time>2021-05-19T15:57:50.000+02:00</time>
      </trkpt>
      <trkpt lat="48.76255" lon="2.0217">
        <ele>182.1</ele>
        <time>2021-05-19T15:58:00.000+02:00</time>
      </trkpt>
      <trkpt lat="48.76264" lon="2.02175">
        <ele>182.7</ele>
        <time>2021-05-19T15:58:15.000+02:00</time>
      </trkpt>
      <trkpt lat="48.76271" lon="2.0218">
        <ele>174.7</ele>
        <time>2021-05-19T15:58:40.000+02:00</time>
      </trkpt>
      <trkpt lat="48.7628" lon="2.02185">
        <ele>173</ele>
        <time>2021-05-19T15:58:50.000+02:00</time>
      </trkpt>
      <trkpt lat="48.76293" lon="2.0219">
        <ele>171.8</ele>
        <time>2021-05-19T15:59:10.000+02:00</time>
      </trkpt>
      <trkpt lat="48.76306" lon="2.02195">
        <ele>166.4</ele>
        <time>2021-05-19T15:59:25.000+02:00</time>
      </trkpt>
      <trkpt lat="48.76318" lon="2.02201">
        <ele>166.4</ele>
        <time>2021-05-19T15:59:40.000+02:00</time>
      </trkpt>
      <trkpt lat="48.76331" lon="2.02199">
        <ele>162.9</ele>
        <time>2021-05-19T15:59:55.000+02:00</time>
      </trkpt>
      <trkpt lat="48.7634" lon="2.02201">
        <ele>163.8</ele>
        <time>2021-05-19T16:00:20.000+02:00</time>
      </trkpt>
    </trkseg>
  </trk>
</gpx>